<?xml version="1.0" encoding="UTF-8" standalone="no" ?>
<gpx xmlns="http://www.topografix.com/GPX/1/1" xmlns:xsi="http://www.w3.org/2001/XMLSchema-instance" xsi:schemaLocation="http://www.topografix.com/GPX/1/1 http://www.topografix.com/GPX/1/1/gpx.xsd" version="1.1" creator="VisuGPX - https://www.visugpx.com">
  <metadata>
    <name>Vidauban - La Garde Freinet AR par les pistes</name>
    <desc><![CDATA[Départ et retour  Vidauban, stade du clos. La plaine des Maures traversée et vue de la route des crêtes !]]></desc>
  </metadata>
  <trk>
    <name><![CDATA[Vidauban-La Garde Freinet AR par les vallées et les crêtes]]></name>
    <trkseg>
      <trkpt lat="43.41843" lon="6.42881">
        <ele>57</ele>
        <time>2018-11-14T22:49:17+01:00</time>
      </trkpt>
      <trkpt lat="43.41827" lon="6.42874">
        <ele>57</ele>
        <time>2018-11-14T22:49:22+01:00</time>
      </trkpt>
      <trkpt lat="43.4178" lon="6.42864">
        <ele>57</ele>
        <time>2018-11-14T22:49:27+01:00</time>
      </trkpt>
      <trkpt lat="43.41745" lon="6.42864">
        <ele>58</ele>
        <time>2018-11-14T22:49:32+01:00</time>
      </trkpt>
      <trkpt lat="43.41723" lon="6.42859">
        <ele>58</ele>
        <time>2018-11-14T22:49:37+01:00</time>
      </trkpt>
      <trkpt lat="43.41666" lon="6.42836">
        <ele>59</ele>
        <time>2018-11-14T22:49:42+01:00</time>
      </trkpt>
      <trkpt lat="43.4164" lon="6.42817">
        <ele>60</ele>
        <time>2018-11-14T22:49:47+01:00</time>
      </trkpt>
      <trkpt lat="43.416" lon="6.42798">
        <ele>62</ele>
        <time>2018-11-14T22:49:52+01:00</time>
      </trkpt>
      <trkpt lat="43.41583" lon="6.428">
        <ele>64</ele>
        <time>2018-11-14T22:49:57+01:00</time>
      </trkpt>
      <trkpt lat="43.41567" lon="6.42809">
        <ele>64</ele>
        <time>2018-11-14T22:50:02+01:00</time>
      </trkpt>
      <trkpt lat="43.41552" lon="6.42814">
        <ele>64</ele>
        <time>2018-11-14T22:50:07+01:00</time>
      </trkpt>
      <trkpt lat="43.41535" lon="6.42816">
        <ele>64</ele>
        <time>2018-11-14T22:50:12+01:00</time>
      </trkpt>
      <trkpt lat="43.41528" lon="6.4281">
        <ele>63</ele>
        <time>2018-11-14T22:50:17+01:00</time>
      </trkpt>
      <trkpt lat="43.41515" lon="6.42817">
        <ele>65</ele>
        <time>2018-11-14T22:50:22+01:00</time>
      </trkpt>
      <trkpt lat="43.415" lon="6.42828">
        <ele>66</ele>
        <time>2018-11-14T22:50:27+01:00</time>
      </trkpt>
      <trkpt lat="43.41474" lon="6.42847">
        <ele>68</ele>
        <time>2018-11-14T22:50:32+01:00</time>
      </trkpt>
      <trkpt lat="43.41449" lon="6.42874">
        <ele>70</ele>
        <time>2018-11-14T22:50:37+01:00</time>
      </trkpt>
      <trkpt lat="43.41419" lon="6.42895">
        <ele>74</ele>
        <time>2018-11-14T22:50:42+01:00</time>
      </trkpt>
      <trkpt lat="43.41279" lon="6.42951">
        <ele>69</ele>
        <time>2018-11-14T22:50:47+01:00</time>
      </trkpt>
      <trkpt lat="43.41242" lon="6.42807">
        <ele>69</ele>
        <time>2018-11-14T22:50:52+01:00</time>
      </trkpt>
      <trkpt lat="43.41295" lon="6.42759">
        <ele>70</ele>
        <time>2018-11-14T22:50:57+01:00</time>
      </trkpt>
      <trkpt lat="43.41243" lon="6.42617">
        <ele>69</ele>
        <time>2018-11-14T22:51:02+01:00</time>
      </trkpt>
      <trkpt lat="43.41214" lon="6.42522">
        <ele>66</ele>
        <time>2018-11-14T22:51:07+01:00</time>
      </trkpt>
      <trkpt lat="43.41176" lon="6.42429">
        <ele>65</ele>
        <time>2018-11-14T22:51:12+01:00</time>
      </trkpt>
      <trkpt lat="43.41113" lon="6.42287">
        <ele>65</ele>
        <time>2018-11-14T22:51:17+01:00</time>
      </trkpt>
      <trkpt lat="43.41092" lon="6.4224">
        <ele>65</ele>
        <time>2018-11-14T22:51:22+01:00</time>
      </trkpt>
      <trkpt lat="43.41063" lon="6.42214">
        <ele>65</ele>
        <time>2018-11-14T22:51:27+01:00</time>
      </trkpt>
      <trkpt lat="43.41018" lon="6.42174">
        <ele>65</ele>
        <time>2018-11-14T22:51:32+01:00</time>
      </trkpt>
      <trkpt lat="43.40976" lon="6.42129">
        <ele>65</ele>
        <time>2018-11-14T22:51:37+01:00</time>
      </trkpt>
      <trkpt lat="43.40804" lon="6.41987">
        <ele>65</ele>
        <time>2018-11-14T22:51:42+01:00</time>
      </trkpt>
      <trkpt lat="43.40774" lon="6.42016">
        <ele>65</ele>
        <time>2018-11-14T22:51:47+01:00</time>
      </trkpt>
      <trkpt lat="43.40738" lon="6.42046">
        <ele>65</ele>
        <time>2018-11-14T22:51:52+01:00</time>
      </trkpt>
      <trkpt lat="43.40707" lon="6.42059">
        <ele>63</ele>
        <time>2018-11-14T22:51:57+01:00</time>
      </trkpt>
      <trkpt lat="43.40636" lon="6.41971">
        <ele>61</ele>
        <time>2018-11-14T22:52:02+01:00</time>
      </trkpt>
      <trkpt lat="43.40566" lon="6.41861">
        <ele>60</ele>
        <time>2018-11-14T22:52:07+01:00</time>
      </trkpt>
      <trkpt lat="43.40494" lon="6.41762">
        <ele>62</ele>
        <time>2018-11-14T22:52:12+01:00</time>
      </trkpt>
      <trkpt lat="43.40445" lon="6.4167">
        <ele>63</ele>
        <time>2018-11-14T22:52:17+01:00</time>
      </trkpt>
      <trkpt lat="43.40373" lon="6.41566">
        <ele>63</ele>
        <time>2018-11-14T22:52:22+01:00</time>
      </trkpt>
      <trkpt lat="43.40249" lon="6.41479">
        <ele>62</ele>
        <time>2018-11-14T22:52:27+01:00</time>
      </trkpt>
      <trkpt lat="43.40176" lon="6.41434">
        <ele>61</ele>
        <time>2018-11-14T22:52:32+01:00</time>
      </trkpt>
      <trkpt lat="43.40088" lon="6.41391">
        <ele>63</ele>
        <time>2018-11-14T22:52:37+01:00</time>
      </trkpt>
      <trkpt lat="43.398" lon="6.41223">
        <ele>74</ele>
        <time>2018-11-14T22:52:42+01:00</time>
      </trkpt>
      <trkpt lat="43.39739" lon="6.41208">
        <ele>72</ele>
        <time>2018-11-14T22:52:47+01:00</time>
      </trkpt>
      <trkpt lat="43.3963" lon="6.41231">
        <ele>67</ele>
        <time>2018-11-14T22:52:52+01:00</time>
      </trkpt>
      <trkpt lat="43.39553" lon="6.41214">
        <ele>65</ele>
        <time>2018-11-14T22:52:57+01:00</time>
      </trkpt>
      <trkpt lat="43.39446" lon="6.41187">
        <ele>63</ele>
        <time>2018-11-14T22:53:02+01:00</time>
      </trkpt>
      <trkpt lat="43.39339" lon="6.41153">
        <ele>60</ele>
        <time>2018-11-14T22:53:07+01:00</time>
      </trkpt>
      <trkpt lat="43.39239" lon="6.41152">
        <ele>60</ele>
        <time>2018-11-14T22:53:12+01:00</time>
      </trkpt>
      <trkpt lat="43.39163" lon="6.41088">
        <ele>60</ele>
        <time>2018-11-14T22:53:17+01:00</time>
      </trkpt>
      <trkpt lat="43.39127" lon="6.41084">
        <ele>60</ele>
        <time>2018-11-14T22:53:22+01:00</time>
      </trkpt>
      <trkpt lat="43.38964" lon="6.41022">
        <ele>61</ele>
        <time>2018-11-14T22:53:27+01:00</time>
      </trkpt>
      <trkpt lat="43.38963" lon="6.40957">
        <ele>61</ele>
        <time>2018-11-14T22:53:32+01:00</time>
      </trkpt>
      <trkpt lat="43.38952" lon="6.40901">
        <ele>62</ele>
        <time>2018-11-14T22:53:37+01:00</time>
      </trkpt>
      <trkpt lat="43.38889" lon="6.4084">
        <ele>62</ele>
        <time>2018-11-14T22:53:42+01:00</time>
      </trkpt>
      <trkpt lat="43.38851" lon="6.40816">
        <ele>63</ele>
        <time>2018-11-14T22:53:47+01:00</time>
      </trkpt>
      <trkpt lat="43.38774" lon="6.4077">
        <ele>63</ele>
        <time>2018-11-14T22:53:52+01:00</time>
      </trkpt>
      <trkpt lat="43.38644" lon="6.4072">
        <ele>64</ele>
        <time>2018-11-14T22:53:57+01:00</time>
      </trkpt>
      <trkpt lat="43.38386" lon="6.40567">
        <ele>65</ele>
        <time>2018-11-14T22:54:02+01:00</time>
      </trkpt>
      <trkpt lat="43.38253" lon="6.40447">
        <ele>65</ele>
        <time>2018-11-14T22:54:07+01:00</time>
      </trkpt>
      <trkpt lat="43.38165" lon="6.40436">
        <ele>64</ele>
        <time>2018-11-14T22:54:12+01:00</time>
      </trkpt>
      <trkpt lat="43.38113" lon="6.40484">
        <ele>61</ele>
        <time>2018-11-14T22:54:17+01:00</time>
      </trkpt>
      <trkpt lat="43.37946" lon="6.40396">
        <ele>65</ele>
        <time>2018-11-14T22:54:22+01:00</time>
      </trkpt>
      <trkpt lat="43.37767" lon="6.40276">
        <ele>65</ele>
        <time>2018-11-14T22:54:27+01:00</time>
      </trkpt>
      <trkpt lat="43.37798" lon="6.40169">
        <ele>65</ele>
        <time>2018-11-14T22:54:32+01:00</time>
      </trkpt>
      <trkpt lat="43.37791" lon="6.40106">
        <ele>66</ele>
        <time>2018-11-14T22:54:37+01:00</time>
      </trkpt>
      <trkpt lat="43.37791" lon="6.40054">
        <ele>66</ele>
        <time>2018-11-14T22:54:42+01:00</time>
      </trkpt>
      <trkpt lat="43.37594" lon="6.4002">
        <ele>69</ele>
        <time>2018-11-14T22:54:47+01:00</time>
      </trkpt>
      <trkpt lat="43.37481" lon="6.4">
        <ele>67</ele>
        <time>2018-11-14T22:54:52+01:00</time>
      </trkpt>
      <trkpt lat="43.37434" lon="6.40019">
        <ele>67</ele>
        <time>2018-11-14T22:54:57+01:00</time>
      </trkpt>
      <trkpt lat="43.37428" lon="6.40003">
        <ele>67</ele>
        <time>2018-11-14T22:55:02+01:00</time>
      </trkpt>
      <trkpt lat="43.37493" lon="6.3971">
        <ele>71</ele>
        <time>2018-11-14T22:55:07+01:00</time>
      </trkpt>
      <trkpt lat="43.37592" lon="6.39281">
        <ele>78</ele>
        <time>2018-11-14T22:55:12+01:00</time>
      </trkpt>
      <trkpt lat="43.37582" lon="6.39235">
        <ele>79</ele>
        <time>2018-11-14T22:55:17+01:00</time>
      </trkpt>
      <trkpt lat="43.37587" lon="6.39144">
        <ele>79</ele>
        <time>2018-11-14T22:55:22+01:00</time>
      </trkpt>
      <trkpt lat="43.37636" lon="6.38832">
        <ele>80</ele>
        <time>2018-11-14T22:55:27+01:00</time>
      </trkpt>
      <trkpt lat="43.37654" lon="6.3879">
        <ele>80</ele>
        <time>2018-11-14T22:55:32+01:00</time>
      </trkpt>
      <trkpt lat="43.37655" lon="6.38766">
        <ele>80</ele>
        <time>2018-11-14T22:55:37+01:00</time>
      </trkpt>
      <trkpt lat="43.37648" lon="6.38286">
        <ele>73</ele>
        <time>2018-11-14T22:55:42+01:00</time>
      </trkpt>
      <trkpt lat="43.37668" lon="6.38162">
        <ele>70</ele>
        <time>2018-11-14T22:55:47+01:00</time>
      </trkpt>
      <trkpt lat="43.37671" lon="6.37962">
        <ele>70</ele>
        <time>2018-11-14T22:55:52+01:00</time>
      </trkpt>
      <trkpt lat="43.37647" lon="6.37913">
        <ele>70</ele>
        <time>2018-11-14T22:55:57+01:00</time>
      </trkpt>
      <trkpt lat="43.37621" lon="6.37762">
        <ele>70</ele>
        <time>2018-11-14T22:56:02+01:00</time>
      </trkpt>
      <trkpt lat="43.3764" lon="6.37651">
        <ele>70</ele>
        <time>2018-11-14T22:56:07+01:00</time>
      </trkpt>
      <trkpt lat="43.37655" lon="6.37642">
        <ele>70</ele>
        <time>2018-11-14T22:56:12+01:00</time>
      </trkpt>
      <trkpt lat="43.37674" lon="6.37632">
        <ele>70</ele>
        <time>2018-11-14T22:56:17+01:00</time>
      </trkpt>
      <trkpt lat="43.37724" lon="6.37641">
        <ele>71</ele>
        <time>2018-11-14T22:56:22+01:00</time>
      </trkpt>
      <trkpt lat="43.378" lon="6.37602">
        <ele>72</ele>
        <time>2018-11-14T22:56:27+01:00</time>
      </trkpt>
      <trkpt lat="43.37837" lon="6.37581">
        <ele>73</ele>
        <time>2018-11-14T22:56:32+01:00</time>
      </trkpt>
      <trkpt lat="43.37853" lon="6.37526">
        <ele>73</ele>
        <time>2018-11-14T22:56:37+01:00</time>
      </trkpt>
      <trkpt lat="43.37973" lon="6.37441">
        <ele>75</ele>
        <time>2018-11-14T22:56:42+01:00</time>
      </trkpt>
      <trkpt lat="43.38003" lon="6.37443">
        <ele>75</ele>
        <time>2018-11-14T22:56:47+01:00</time>
      </trkpt>
      <trkpt lat="43.38053" lon="6.37463">
        <ele>75</ele>
        <time>2018-11-14T22:56:52+01:00</time>
      </trkpt>
      <trkpt lat="43.38085" lon="6.37451">
        <ele>75</ele>
        <time>2018-11-14T22:56:57+01:00</time>
      </trkpt>
      <trkpt lat="43.38113" lon="6.37421">
        <ele>75</ele>
        <time>2018-11-14T22:57:02+01:00</time>
      </trkpt>
      <trkpt lat="43.38172" lon="6.37318">
        <ele>75</ele>
        <time>2018-11-14T22:57:07+01:00</time>
      </trkpt>
      <trkpt lat="43.38207" lon="6.3721">
        <ele>78</ele>
        <time>2018-11-14T22:57:12+01:00</time>
      </trkpt>
      <trkpt lat="43.38101" lon="6.37031">
        <ele>82</ele>
        <time>2018-11-14T22:57:17+01:00</time>
      </trkpt>
      <trkpt lat="43.37992" lon="6.36891">
        <ele>84</ele>
        <time>2018-11-14T22:57:22+01:00</time>
      </trkpt>
      <trkpt lat="43.37921" lon="6.36814">
        <ele>82</ele>
        <time>2018-11-14T22:57:27+01:00</time>
      </trkpt>
      <trkpt lat="43.37839" lon="6.3677">
        <ele>80</ele>
        <time>2018-11-14T22:57:32+01:00</time>
      </trkpt>
      <trkpt lat="43.37747" lon="6.36574">
        <ele>80</ele>
        <time>2018-11-14T22:57:37+01:00</time>
      </trkpt>
      <trkpt lat="43.37732" lon="6.36509">
        <ele>81</ele>
        <time>2018-11-14T22:57:42+01:00</time>
      </trkpt>
      <trkpt lat="43.37676" lon="6.36431">
        <ele>80</ele>
        <time>2018-11-14T22:57:47+01:00</time>
      </trkpt>
      <trkpt lat="43.37315" lon="6.36679">
        <ele>91</ele>
        <time>2018-11-14T22:57:52+01:00</time>
      </trkpt>
      <trkpt lat="43.37091" lon="6.36942">
        <ele>95</ele>
        <time>2018-11-14T22:57:57+01:00</time>
      </trkpt>
      <trkpt lat="43.36875" lon="6.37202">
        <ele>91</ele>
        <time>2018-11-14T22:58:02+01:00</time>
      </trkpt>
      <trkpt lat="43.36663" lon="6.37388">
        <ele>90</ele>
        <time>2018-11-14T22:58:07+01:00</time>
      </trkpt>
      <trkpt lat="43.36482" lon="6.37757">
        <ele>84</ele>
        <time>2018-11-14T22:58:12+01:00</time>
      </trkpt>
      <trkpt lat="43.36462" lon="6.37796">
        <ele>84</ele>
        <time>2018-11-14T22:58:17+01:00</time>
      </trkpt>
      <trkpt lat="43.36351" lon="6.37915">
        <ele>81</ele>
        <time>2018-11-14T22:58:22+01:00</time>
      </trkpt>
      <trkpt lat="43.36233" lon="6.38109">
        <ele>81</ele>
        <time>2018-11-14T22:58:27+01:00</time>
      </trkpt>
      <trkpt lat="43.36108" lon="6.38483">
        <ele>85</ele>
        <time>2018-11-14T22:58:32+01:00</time>
      </trkpt>
      <trkpt lat="43.36088" lon="6.38649">
        <ele>83</ele>
        <time>2018-11-14T22:58:37+01:00</time>
      </trkpt>
      <trkpt lat="43.36083" lon="6.38852">
        <ele>85</ele>
        <time>2018-11-14T22:58:42+01:00</time>
      </trkpt>
      <trkpt lat="43.36066" lon="6.38923">
        <ele>85</ele>
        <time>2018-11-14T22:58:47+01:00</time>
      </trkpt>
      <trkpt lat="43.3598" lon="6.39144">
        <ele>77</ele>
        <time>2018-11-14T22:58:52+01:00</time>
      </trkpt>
      <trkpt lat="43.35946" lon="6.39322">
        <ele>74</ele>
        <time>2018-11-14T22:58:57+01:00</time>
      </trkpt>
      <trkpt lat="43.35937" lon="6.39429">
        <ele>74</ele>
        <time>2018-11-14T22:59:02+01:00</time>
      </trkpt>
      <trkpt lat="43.35938" lon="6.39536">
        <ele>72</ele>
        <time>2018-11-14T22:59:07+01:00</time>
      </trkpt>
      <trkpt lat="43.35923" lon="6.39723">
        <ele>70</ele>
        <time>2018-11-14T22:59:12+01:00</time>
      </trkpt>
      <trkpt lat="43.35902" lon="6.3993">
        <ele>73</ele>
        <time>2018-11-14T22:59:17+01:00</time>
      </trkpt>
      <trkpt lat="43.35889" lon="6.40032">
        <ele>79</ele>
        <time>2018-11-14T22:59:22+01:00</time>
      </trkpt>
      <trkpt lat="43.35873" lon="6.40113">
        <ele>85</ele>
        <time>2018-11-14T22:59:27+01:00</time>
      </trkpt>
      <trkpt lat="43.35843" lon="6.40226">
        <ele>85</ele>
        <time>2018-11-14T22:59:32+01:00</time>
      </trkpt>
      <trkpt lat="43.35799" lon="6.40205">
        <ele>85</ele>
        <time>2018-11-14T22:59:37+01:00</time>
      </trkpt>
      <trkpt lat="43.35743" lon="6.40179">
        <ele>85</ele>
        <time>2018-11-14T22:59:42+01:00</time>
      </trkpt>
      <trkpt lat="43.35712" lon="6.40187">
        <ele>85</ele>
        <time>2018-11-14T22:59:47+01:00</time>
      </trkpt>
      <trkpt lat="43.35695" lon="6.4021">
        <ele>85</ele>
        <time>2018-11-14T22:59:52+01:00</time>
      </trkpt>
      <trkpt lat="43.3568" lon="6.40239">
        <ele>85</ele>
        <time>2018-11-14T22:59:57+01:00</time>
      </trkpt>
      <trkpt lat="43.35643" lon="6.40312">
        <ele>85</ele>
        <time>2018-11-14T23:00:02+01:00</time>
      </trkpt>
      <trkpt lat="43.35606" lon="6.4038">
        <ele>85</ele>
        <time>2018-11-14T23:00:07+01:00</time>
      </trkpt>
      <trkpt lat="43.35568" lon="6.40406">
        <ele>86</ele>
        <time>2018-11-14T23:00:12+01:00</time>
      </trkpt>
      <trkpt lat="43.35512" lon="6.40419">
        <ele>88</ele>
        <time>2018-11-14T23:00:17+01:00</time>
      </trkpt>
      <trkpt lat="43.35443" lon="6.40441">
        <ele>90</ele>
        <time>2018-11-14T23:00:22+01:00</time>
      </trkpt>
      <trkpt lat="43.35275" lon="6.40466">
        <ele>90</ele>
        <time>2018-11-14T23:00:27+01:00</time>
      </trkpt>
      <trkpt lat="43.35159" lon="6.40492">
        <ele>90</ele>
        <time>2018-11-14T23:00:32+01:00</time>
      </trkpt>
      <trkpt lat="43.35031" lon="6.40505">
        <ele>90</ele>
        <time>2018-11-14T23:00:37+01:00</time>
      </trkpt>
      <trkpt lat="43.34891" lon="6.40513">
        <ele>94</ele>
        <time>2018-11-14T23:00:42+01:00</time>
      </trkpt>
      <trkpt lat="43.34671" lon="6.4054">
        <ele>95</ele>
        <time>2018-11-14T23:00:47+01:00</time>
      </trkpt>
      <trkpt lat="43.34561" lon="6.40561">
        <ele>98</ele>
        <time>2018-11-14T23:00:52+01:00</time>
      </trkpt>
      <trkpt lat="43.34478" lon="6.40538">
        <ele>99</ele>
        <time>2018-11-14T23:00:57+01:00</time>
      </trkpt>
      <trkpt lat="43.34445" lon="6.40544">
        <ele>100</ele>
        <time>2018-11-14T23:01:02+01:00</time>
      </trkpt>
      <trkpt lat="43.34367" lon="6.40553">
        <ele>100</ele>
        <time>2018-11-14T23:01:07+01:00</time>
      </trkpt>
      <trkpt lat="43.34293" lon="6.40566">
        <ele>100</ele>
        <time>2018-11-14T23:01:12+01:00</time>
      </trkpt>
      <trkpt lat="43.34225" lon="6.40562">
        <ele>100</ele>
        <time>2018-11-14T23:01:17+01:00</time>
      </trkpt>
      <trkpt lat="43.34146" lon="6.40551">
        <ele>101</ele>
        <time>2018-11-14T23:01:22+01:00</time>
      </trkpt>
      <trkpt lat="43.34073" lon="6.40534">
        <ele>104</ele>
        <time>2018-11-14T23:01:27+01:00</time>
      </trkpt>
      <trkpt lat="43.34021" lon="6.40527">
        <ele>105</ele>
        <time>2018-11-14T23:01:32+01:00</time>
      </trkpt>
      <trkpt lat="43.3396" lon="6.40536">
        <ele>106</ele>
        <time>2018-11-14T23:01:37+01:00</time>
      </trkpt>
      <trkpt lat="43.3392" lon="6.40534">
        <ele>107</ele>
        <time>2018-11-14T23:01:42+01:00</time>
      </trkpt>
      <trkpt lat="43.33891" lon="6.4053">
        <ele>108</ele>
        <time>2018-11-14T23:01:47+01:00</time>
      </trkpt>
      <trkpt lat="43.33856" lon="6.40527">
        <ele>109</ele>
        <time>2018-11-14T23:01:52+01:00</time>
      </trkpt>
      <trkpt lat="43.33832" lon="6.40521">
        <ele>109</ele>
        <time>2018-11-14T23:01:57+01:00</time>
      </trkpt>
      <trkpt lat="43.33807" lon="6.4051">
        <ele>109</ele>
        <time>2018-11-14T23:02:02+01:00</time>
      </trkpt>
      <trkpt lat="43.33781" lon="6.40502">
        <ele>110</ele>
        <time>2018-11-14T23:02:07+01:00</time>
      </trkpt>
      <trkpt lat="43.33749" lon="6.405">
        <ele>110</ele>
        <time>2018-11-14T23:02:12+01:00</time>
      </trkpt>
      <trkpt lat="43.33709" lon="6.40497">
        <ele>110</ele>
        <time>2018-11-14T23:02:17+01:00</time>
      </trkpt>
      <trkpt lat="43.33709" lon="6.40499">
        <ele>110</ele>
        <time>2018-11-14T23:02:22+01:00</time>
      </trkpt>
      <trkpt lat="43.33686" lon="6.40503">
        <ele>110</ele>
        <time>2018-11-14T23:02:27+01:00</time>
      </trkpt>
      <trkpt lat="43.33666" lon="6.4051">
        <ele>110</ele>
        <time>2018-11-14T23:02:32+01:00</time>
      </trkpt>
      <trkpt lat="43.33645" lon="6.40516">
        <ele>110</ele>
        <time>2018-11-14T23:02:37+01:00</time>
      </trkpt>
      <trkpt lat="43.33627" lon="6.40518">
        <ele>110</ele>
        <time>2018-11-14T23:02:42+01:00</time>
      </trkpt>
      <trkpt lat="43.3361" lon="6.40539">
        <ele>110</ele>
        <time>2018-11-14T23:02:47+01:00</time>
      </trkpt>
      <trkpt lat="43.33603" lon="6.40595">
        <ele>110</ele>
        <time>2018-11-14T23:02:52+01:00</time>
      </trkpt>
      <trkpt lat="43.33565" lon="6.40658">
        <ele>110</ele>
        <time>2018-11-14T23:02:57+01:00</time>
      </trkpt>
      <trkpt lat="43.33547" lon="6.40695">
        <ele>110</ele>
        <time>2018-11-14T23:03:02+01:00</time>
      </trkpt>
      <trkpt lat="43.33549" lon="6.40739">
        <ele>110</ele>
        <time>2018-11-14T23:03:07+01:00</time>
      </trkpt>
      <trkpt lat="43.33581" lon="6.40786">
        <ele>107</ele>
        <time>2018-11-14T23:03:12+01:00</time>
      </trkpt>
      <trkpt lat="43.336" lon="6.40843">
        <ele>107</ele>
        <time>2018-11-14T23:03:17+01:00</time>
      </trkpt>
      <trkpt lat="43.33598" lon="6.40889">
        <ele>106</ele>
        <time>2018-11-14T23:03:22+01:00</time>
      </trkpt>
      <trkpt lat="43.3358" lon="6.40925">
        <ele>105</ele>
        <time>2018-11-14T23:03:27+01:00</time>
      </trkpt>
      <trkpt lat="43.33593" lon="6.41013">
        <ele>103</ele>
        <time>2018-11-14T23:03:32+01:00</time>
      </trkpt>
      <trkpt lat="43.33583" lon="6.41065">
        <ele>104</ele>
        <time>2018-11-14T23:03:37+01:00</time>
      </trkpt>
      <trkpt lat="43.33587" lon="6.41113">
        <ele>105</ele>
        <time>2018-11-14T23:03:42+01:00</time>
      </trkpt>
      <trkpt lat="43.336" lon="6.41156">
        <ele>106</ele>
        <time>2018-11-14T23:03:47+01:00</time>
      </trkpt>
      <trkpt lat="43.33611" lon="6.41277">
        <ele>105</ele>
        <time>2018-11-14T23:03:52+01:00</time>
      </trkpt>
      <trkpt lat="43.33538" lon="6.41359">
        <ele>107</ele>
        <time>2018-11-14T23:03:57+01:00</time>
      </trkpt>
      <trkpt lat="43.33515" lon="6.41414">
        <ele>110</ele>
        <time>2018-11-14T23:04:02+01:00</time>
      </trkpt>
      <trkpt lat="43.33504" lon="6.41476">
        <ele>113</ele>
        <time>2018-11-14T23:04:07+01:00</time>
      </trkpt>
      <trkpt lat="43.33438" lon="6.41484">
        <ele>115</ele>
        <time>2018-11-14T23:04:12+01:00</time>
      </trkpt>
      <trkpt lat="43.33398" lon="6.41489">
        <ele>115</ele>
        <time>2018-11-14T23:04:17+01:00</time>
      </trkpt>
      <trkpt lat="43.33366" lon="6.41506">
        <ele>115</ele>
        <time>2018-11-14T23:04:22+01:00</time>
      </trkpt>
      <trkpt lat="43.33242" lon="6.4153">
        <ele>115</ele>
        <time>2018-11-14T23:04:27+01:00</time>
      </trkpt>
      <trkpt lat="43.33172" lon="6.41493">
        <ele>118</ele>
        <time>2018-11-14T23:04:32+01:00</time>
      </trkpt>
      <trkpt lat="43.32982" lon="6.41305">
        <ele>120</ele>
        <time>2018-11-14T23:04:37+01:00</time>
      </trkpt>
      <trkpt lat="43.32952" lon="6.41374">
        <ele>120</ele>
        <time>2018-11-14T23:04:42+01:00</time>
      </trkpt>
      <trkpt lat="43.32927" lon="6.41402">
        <ele>120</ele>
        <time>2018-11-14T23:04:47+01:00</time>
      </trkpt>
      <trkpt lat="43.32892" lon="6.41408">
        <ele>121</ele>
        <time>2018-11-14T23:04:52+01:00</time>
      </trkpt>
      <trkpt lat="43.32863" lon="6.41457">
        <ele>123</ele>
        <time>2018-11-14T23:04:57+01:00</time>
      </trkpt>
      <trkpt lat="43.3279" lon="6.41549">
        <ele>128</ele>
        <time>2018-11-14T23:05:02+01:00</time>
      </trkpt>
      <trkpt lat="43.32765" lon="6.41583">
        <ele>128</ele>
        <time>2018-11-14T23:05:07+01:00</time>
      </trkpt>
      <trkpt lat="43.32732" lon="6.41611">
        <ele>129</ele>
        <time>2018-11-14T23:05:12+01:00</time>
      </trkpt>
      <trkpt lat="43.32668" lon="6.41634">
        <ele>130</ele>
        <time>2018-11-14T23:05:17+01:00</time>
      </trkpt>
      <trkpt lat="43.32592" lon="6.41696">
        <ele>131</ele>
        <time>2018-11-14T23:05:22+01:00</time>
      </trkpt>
      <trkpt lat="43.32465" lon="6.41764">
        <ele>139</ele>
        <time>2018-11-14T23:05:27+01:00</time>
      </trkpt>
      <trkpt lat="43.32389" lon="6.41838">
        <ele>140</ele>
        <time>2018-11-14T23:05:32+01:00</time>
      </trkpt>
      <trkpt lat="43.32321" lon="6.4186">
        <ele>144</ele>
        <time>2018-11-14T23:05:37+01:00</time>
      </trkpt>
      <trkpt lat="43.32274" lon="6.4187">
        <ele>149</ele>
        <time>2018-11-14T23:05:42+01:00</time>
      </trkpt>
      <trkpt lat="43.32225" lon="6.41908">
        <ele>149</ele>
        <time>2018-11-14T23:05:47+01:00</time>
      </trkpt>
      <trkpt lat="43.32154" lon="6.4206">
        <ele>157</ele>
        <time>2018-11-14T23:05:52+01:00</time>
      </trkpt>
      <trkpt lat="43.32052" lon="6.41974">
        <ele>160</ele>
        <time>2018-11-14T23:05:57+01:00</time>
      </trkpt>
      <trkpt lat="43.32048" lon="6.41951">
        <ele>162</ele>
        <time>2018-11-14T23:06:02+01:00</time>
      </trkpt>
      <trkpt lat="43.32031" lon="6.41962">
        <ele>162</ele>
        <time>2018-11-14T23:06:07+01:00</time>
      </trkpt>
      <trkpt lat="43.3187" lon="6.42132">
        <ele>173</ele>
        <time>2018-11-14T23:06:12+01:00</time>
      </trkpt>
      <trkpt lat="43.31878" lon="6.42157">
        <ele>173</ele>
        <time>2018-11-14T23:06:17+01:00</time>
      </trkpt>
      <trkpt lat="43.32005" lon="6.42089">
        <ele>177</ele>
        <time>2018-11-14T23:06:22+01:00</time>
      </trkpt>
      <trkpt lat="43.32083" lon="6.42195">
        <ele>183</ele>
        <time>2018-11-14T23:06:27+01:00</time>
      </trkpt>
      <trkpt lat="43.32098" lon="6.42238">
        <ele>187</ele>
        <time>2018-11-14T23:06:32+01:00</time>
      </trkpt>
      <trkpt lat="43.32181" lon="6.42292">
        <ele>198</ele>
        <time>2018-11-14T23:06:37+01:00</time>
      </trkpt>
      <trkpt lat="43.32192" lon="6.42252">
        <ele>194</ele>
        <time>2018-11-14T23:06:42+01:00</time>
      </trkpt>
      <trkpt lat="43.32234" lon="6.4222">
        <ele>197</ele>
        <time>2018-11-14T23:06:47+01:00</time>
      </trkpt>
      <trkpt lat="43.32257" lon="6.42232">
        <ele>197</ele>
        <time>2018-11-14T23:06:52+01:00</time>
      </trkpt>
      <trkpt lat="43.32254" lon="6.42271">
        <ele>202</ele>
        <time>2018-11-14T23:06:57+01:00</time>
      </trkpt>
      <trkpt lat="43.32285" lon="6.42319">
        <ele>201</ele>
        <time>2018-11-14T23:07:02+01:00</time>
      </trkpt>
      <trkpt lat="43.32287" lon="6.42364">
        <ele>207</ele>
        <time>2018-11-14T23:07:07+01:00</time>
      </trkpt>
      <trkpt lat="43.32322" lon="6.42437">
        <ele>216</ele>
        <time>2018-11-14T23:07:12+01:00</time>
      </trkpt>
      <trkpt lat="43.32351" lon="6.42418">
        <ele>210</ele>
        <time>2018-11-14T23:07:17+01:00</time>
      </trkpt>
      <trkpt lat="43.32381" lon="6.42438">
        <ele>218</ele>
        <time>2018-11-14T23:07:22+01:00</time>
      </trkpt>
      <trkpt lat="43.32408" lon="6.42399">
        <ele>214</ele>
        <time>2018-11-14T23:07:27+01:00</time>
      </trkpt>
      <trkpt lat="43.3244" lon="6.42382">
        <ele>215</ele>
        <time>2018-11-14T23:07:32+01:00</time>
      </trkpt>
      <trkpt lat="43.32472" lon="6.42413">
        <ele>220</ele>
        <time>2018-11-14T23:07:37+01:00</time>
      </trkpt>
      <trkpt lat="43.32487" lon="6.42474">
        <ele>222</ele>
        <time>2018-11-14T23:07:42+01:00</time>
      </trkpt>
      <trkpt lat="43.32514" lon="6.42553">
        <ele>223</ele>
        <time>2018-11-14T23:07:47+01:00</time>
      </trkpt>
      <trkpt lat="43.32437" lon="6.42601">
        <ele>226</ele>
        <time>2018-11-14T23:07:52+01:00</time>
      </trkpt>
      <trkpt lat="43.32408" lon="6.42595">
        <ele>228</ele>
        <time>2018-11-14T23:07:57+01:00</time>
      </trkpt>
      <trkpt lat="43.32384" lon="6.42562">
        <ele>234</ele>
        <time>2018-11-14T23:08:02+01:00</time>
      </trkpt>
      <trkpt lat="43.32337" lon="6.4256">
        <ele>235</ele>
        <time>2018-11-14T23:08:07+01:00</time>
      </trkpt>
      <trkpt lat="43.32312" lon="6.42584">
        <ele>235</ele>
        <time>2018-11-14T23:08:12+01:00</time>
      </trkpt>
      <trkpt lat="43.32248" lon="6.42613">
        <ele>240</ele>
        <time>2018-11-14T23:08:17+01:00</time>
      </trkpt>
      <trkpt lat="43.32252" lon="6.42688">
        <ele>243</ele>
        <time>2018-11-14T23:08:22+01:00</time>
      </trkpt>
      <trkpt lat="43.32269" lon="6.42763">
        <ele>244</ele>
        <time>2018-11-14T23:08:27+01:00</time>
      </trkpt>
      <trkpt lat="43.32279" lon="6.42838">
        <ele>247</ele>
        <time>2018-11-14T23:08:32+01:00</time>
      </trkpt>
      <trkpt lat="43.32271" lon="6.42923">
        <ele>252</ele>
        <time>2018-11-14T23:08:37+01:00</time>
      </trkpt>
      <trkpt lat="43.32225" lon="6.42951">
        <ele>252</ele>
        <time>2018-11-14T23:08:42+01:00</time>
      </trkpt>
      <trkpt lat="43.32187" lon="6.42949">
        <ele>257</ele>
        <time>2018-11-14T23:08:47+01:00</time>
      </trkpt>
      <trkpt lat="43.32136" lon="6.42967">
        <ele>256</ele>
        <time>2018-11-14T23:08:52+01:00</time>
      </trkpt>
      <trkpt lat="43.32084" lon="6.4297">
        <ele>263</ele>
        <time>2018-11-14T23:08:57+01:00</time>
      </trkpt>
      <trkpt lat="43.32054" lon="6.43015">
        <ele>261</ele>
        <time>2018-11-14T23:09:02+01:00</time>
      </trkpt>
      <trkpt lat="43.31999" lon="6.43044">
        <ele>267</ele>
        <time>2018-11-14T23:09:07+01:00</time>
      </trkpt>
      <trkpt lat="43.31977" lon="6.43067">
        <ele>270</ele>
        <time>2018-11-14T23:09:12+01:00</time>
      </trkpt>
      <trkpt lat="43.31968" lon="6.43101">
        <ele>268</ele>
        <time>2018-11-14T23:09:17+01:00</time>
      </trkpt>
      <trkpt lat="43.31892" lon="6.43187">
        <ele>276</ele>
        <time>2018-11-14T23:09:22+01:00</time>
      </trkpt>
      <trkpt lat="43.31846" lon="6.43214">
        <ele>281</ele>
        <time>2018-11-14T23:09:27+01:00</time>
      </trkpt>
      <trkpt lat="43.31796" lon="6.43225">
        <ele>284</ele>
        <time>2018-11-14T23:09:32+01:00</time>
      </trkpt>
      <trkpt lat="43.31736" lon="6.43179">
        <ele>291</ele>
        <time>2018-11-14T23:09:37+01:00</time>
      </trkpt>
      <trkpt lat="43.31677" lon="6.43145">
        <ele>294</ele>
        <time>2018-11-14T23:09:42+01:00</time>
      </trkpt>
      <trkpt lat="43.31628" lon="6.43193">
        <ele>297</ele>
        <time>2018-11-14T23:09:47+01:00</time>
      </trkpt>
      <trkpt lat="43.31585" lon="6.43202">
        <ele>303</ele>
        <time>2018-11-14T23:09:52+01:00</time>
      </trkpt>
      <trkpt lat="43.3154" lon="6.43237">
        <ele>307</ele>
        <time>2018-11-14T23:09:57+01:00</time>
      </trkpt>
      <trkpt lat="43.31525" lon="6.43342">
        <ele>311</ele>
        <time>2018-11-14T23:10:02+01:00</time>
      </trkpt>
      <trkpt lat="43.31388" lon="6.43331">
        <ele>322</ele>
        <time>2018-11-14T23:10:07+01:00</time>
      </trkpt>
      <trkpt lat="43.31299" lon="6.43207">
        <ele>330</ele>
        <time>2018-11-14T23:10:12+01:00</time>
      </trkpt>
      <trkpt lat="43.31085" lon="6.4335">
        <ele>347</ele>
        <time>2018-11-14T23:10:17+01:00</time>
      </trkpt>
      <trkpt lat="43.3101" lon="6.43226">
        <ele>356</ele>
        <time>2018-11-14T23:10:22+01:00</time>
      </trkpt>
      <trkpt lat="43.30907" lon="6.43172">
        <ele>362</ele>
        <time>2018-11-14T23:10:27+01:00</time>
      </trkpt>
      <trkpt lat="43.3086" lon="6.43277">
        <ele>366</ele>
        <time>2018-11-14T23:10:32+01:00</time>
      </trkpt>
      <trkpt lat="43.30769" lon="6.43293">
        <ele>375</ele>
        <time>2018-11-14T23:10:37+01:00</time>
      </trkpt>
      <trkpt lat="43.30774" lon="6.43402">
        <ele>375</ele>
        <time>2018-11-14T23:10:42+01:00</time>
      </trkpt>
      <trkpt lat="43.30674" lon="6.43389">
        <ele>386</ele>
        <time>2018-11-14T23:10:47+01:00</time>
      </trkpt>
      <trkpt lat="43.30531" lon="6.43445">
        <ele>397</ele>
        <time>2018-11-14T23:10:52+01:00</time>
      </trkpt>
      <trkpt lat="43.30411" lon="6.43468">
        <ele>412</ele>
        <time>2018-11-14T23:10:57+01:00</time>
      </trkpt>
      <trkpt lat="43.30312" lon="6.43625">
        <ele>425</ele>
        <time>2018-11-14T23:11:02+01:00</time>
      </trkpt>
      <trkpt lat="43.3029" lon="6.43812">
        <ele>443</ele>
        <time>2018-11-14T23:11:07+01:00</time>
      </trkpt>
      <trkpt lat="43.30346" lon="6.43949">
        <ele>453</ele>
        <time>2018-11-14T23:11:12+01:00</time>
      </trkpt>
      <trkpt lat="43.30223" lon="6.4423">
        <ele>470</ele>
        <time>2018-11-14T23:11:17+01:00</time>
      </trkpt>
      <trkpt lat="43.30249" lon="6.44505">
        <ele>477</ele>
        <time>2018-11-14T23:11:22+01:00</time>
      </trkpt>
      <trkpt lat="43.30203" lon="6.44578">
        <ele>480</ele>
        <time>2018-11-14T23:11:27+01:00</time>
      </trkpt>
      <trkpt lat="43.30224" lon="6.44818">
        <ele>475</ele>
        <time>2018-11-14T23:11:32+01:00</time>
      </trkpt>
      <trkpt lat="43.30155" lon="6.44902">
        <ele>476</ele>
        <time>2018-11-14T23:11:37+01:00</time>
      </trkpt>
      <trkpt lat="43.30129" lon="6.44953">
        <ele>479</ele>
        <time>2018-11-14T23:11:42+01:00</time>
      </trkpt>
      <trkpt lat="43.30273" lon="6.45031">
        <ele>479</ele>
        <time>2018-11-14T23:11:47+01:00</time>
      </trkpt>
      <trkpt lat="43.30281" lon="6.45127">
        <ele>485</ele>
        <time>2018-11-14T23:11:52+01:00</time>
      </trkpt>
      <trkpt lat="43.30363" lon="6.45286">
        <ele>497</ele>
        <time>2018-11-14T23:11:57+01:00</time>
      </trkpt>
      <trkpt lat="43.30421" lon="6.45237">
        <ele>501</ele>
        <time>2018-11-14T23:12:02+01:00</time>
      </trkpt>
      <trkpt lat="43.30467" lon="6.45179">
        <ele>505</ele>
        <time>2018-11-14T23:12:07+01:00</time>
      </trkpt>
      <trkpt lat="43.30463" lon="6.45082">
        <ele>501</ele>
        <time>2018-11-14T23:12:12+01:00</time>
      </trkpt>
      <trkpt lat="43.3063" lon="6.44975">
        <ele>502</ele>
        <time>2018-11-14T23:12:17+01:00</time>
      </trkpt>
      <trkpt lat="43.30666" lon="6.44988">
        <ele>502</ele>
        <time>2018-11-14T23:12:22+01:00</time>
      </trkpt>
      <trkpt lat="43.30724" lon="6.44975">
        <ele>503</ele>
        <time>2018-11-14T23:12:27+01:00</time>
      </trkpt>
      <trkpt lat="43.30798" lon="6.44955">
        <ele>500</ele>
        <time>2018-11-14T23:12:32+01:00</time>
      </trkpt>
      <trkpt lat="43.30839" lon="6.44979">
        <ele>502</ele>
        <time>2018-11-14T23:12:37+01:00</time>
      </trkpt>
      <trkpt lat="43.30834" lon="6.45028">
        <ele>505</ele>
        <time>2018-11-14T23:12:42+01:00</time>
      </trkpt>
      <trkpt lat="43.30824" lon="6.44988">
        <ele>505</ele>
        <time>2018-11-14T23:12:47+01:00</time>
      </trkpt>
      <trkpt lat="43.30786" lon="6.44976">
        <ele>507</ele>
        <time>2018-11-14T23:12:52+01:00</time>
      </trkpt>
      <trkpt lat="43.30699" lon="6.45024">
        <ele>515</ele>
        <time>2018-11-14T23:12:57+01:00</time>
      </trkpt>
      <trkpt lat="43.30622" lon="6.45029">
        <ele>516</ele>
        <time>2018-11-14T23:13:02+01:00</time>
      </trkpt>
      <trkpt lat="43.3059" lon="6.45084">
        <ele>523</ele>
        <time>2018-11-14T23:13:07+01:00</time>
      </trkpt>
      <trkpt lat="43.30518" lon="6.45157">
        <ele>525</ele>
        <time>2018-11-14T23:13:12+01:00</time>
      </trkpt>
      <trkpt lat="43.30516" lon="6.45198">
        <ele>528</ele>
        <time>2018-11-14T23:13:17+01:00</time>
      </trkpt>
      <trkpt lat="43.3049" lon="6.45253">
        <ele>529</ele>
        <time>2018-11-14T23:13:22+01:00</time>
      </trkpt>
      <trkpt lat="43.30425" lon="6.45344">
        <ele>535</ele>
        <time>2018-11-14T23:13:27+01:00</time>
      </trkpt>
      <trkpt lat="43.30404" lon="6.45386">
        <ele>539</ele>
        <time>2018-11-14T23:13:32+01:00</time>
      </trkpt>
      <trkpt lat="43.30355" lon="6.45407">
        <ele>537</ele>
        <time>2018-11-14T23:13:37+01:00</time>
      </trkpt>
      <trkpt lat="43.30301" lon="6.4545">
        <ele>544</ele>
        <time>2018-11-14T23:13:42+01:00</time>
      </trkpt>
      <trkpt lat="43.30263" lon="6.45406">
        <ele>546</ele>
        <time>2018-11-14T23:13:47+01:00</time>
      </trkpt>
      <trkpt lat="43.30276" lon="6.45347">
        <ele>542</ele>
        <time>2018-11-14T23:13:52+01:00</time>
      </trkpt>
      <trkpt lat="43.30272" lon="6.45298">
        <ele>542</ele>
        <time>2018-11-14T23:13:57+01:00</time>
      </trkpt>
      <trkpt lat="43.30215" lon="6.45277">
        <ele>551</ele>
        <time>2018-11-14T23:14:02+01:00</time>
      </trkpt>
      <trkpt lat="43.3016" lon="6.45214">
        <ele>553</ele>
        <time>2018-11-14T23:14:07+01:00</time>
      </trkpt>
      <trkpt lat="43.30144" lon="6.45175">
        <ele>552</ele>
        <time>2018-11-14T23:14:12+01:00</time>
      </trkpt>
      <trkpt lat="43.30102" lon="6.45166">
        <ele>557</ele>
        <time>2018-11-14T23:14:17+01:00</time>
      </trkpt>
      <trkpt lat="43.30069" lon="6.45122">
        <ele>554</ele>
        <time>2018-11-14T23:14:22+01:00</time>
      </trkpt>
      <trkpt lat="43.30029" lon="6.4513">
        <ele>564</ele>
        <time>2018-11-14T23:14:27+01:00</time>
      </trkpt>
      <trkpt lat="43.3001" lon="6.45097">
        <ele>560</ele>
        <time>2018-11-14T23:14:32+01:00</time>
      </trkpt>
      <trkpt lat="43.29963" lon="6.45078">
        <ele>566</ele>
        <time>2018-11-14T23:14:37+01:00</time>
      </trkpt>
      <trkpt lat="43.2992" lon="6.45003">
        <ele>560</ele>
        <time>2018-11-14T23:14:42+01:00</time>
      </trkpt>
      <trkpt lat="43.2997" lon="6.44852">
        <ele>572</ele>
        <time>2018-11-14T23:14:47+01:00</time>
      </trkpt>
      <trkpt lat="43.29977" lon="6.44761">
        <ele>576</ele>
        <time>2018-11-14T23:14:52+01:00</time>
      </trkpt>
      <trkpt lat="43.29933" lon="6.447">
        <ele>575</ele>
        <time>2018-11-14T23:14:57+01:00</time>
      </trkpt>
      <trkpt lat="43.29891" lon="6.44616">
        <ele>573</ele>
        <time>2018-11-14T23:15:02+01:00</time>
      </trkpt>
      <trkpt lat="43.29858" lon="6.44681">
        <ele>562</ele>
        <time>2018-11-14T23:15:07+01:00</time>
      </trkpt>
      <trkpt lat="43.2984" lon="6.44774">
        <ele>546</ele>
        <time>2018-11-14T23:15:12+01:00</time>
      </trkpt>
      <trkpt lat="43.29834" lon="6.44898">
        <ele>534</ele>
        <time>2018-11-14T23:15:17+01:00</time>
      </trkpt>
      <trkpt lat="43.29829" lon="6.44936">
        <ele>529</ele>
        <time>2018-11-14T23:15:22+01:00</time>
      </trkpt>
      <trkpt lat="43.29755" lon="6.45113">
        <ele>518</ele>
        <time>2018-11-14T23:15:27+01:00</time>
      </trkpt>
      <trkpt lat="43.29742" lon="6.45173">
        <ele>520</ele>
        <time>2018-11-14T23:15:32+01:00</time>
      </trkpt>
      <trkpt lat="43.29743" lon="6.4522">
        <ele>523</ele>
        <time>2018-11-14T23:15:37+01:00</time>
      </trkpt>
      <trkpt lat="43.29774" lon="6.45344">
        <ele>527</ele>
        <time>2018-11-14T23:15:42+01:00</time>
      </trkpt>
      <trkpt lat="43.29701" lon="6.45436">
        <ele>523</ele>
        <time>2018-11-14T23:15:47+01:00</time>
      </trkpt>
      <trkpt lat="43.29638" lon="6.45494">
        <ele>519</ele>
        <time>2018-11-14T23:15:52+01:00</time>
      </trkpt>
      <trkpt lat="43.29552" lon="6.45608">
        <ele>510</ele>
        <time>2018-11-14T23:15:57+01:00</time>
      </trkpt>
      <trkpt lat="43.29533" lon="6.45547">
        <ele>509</ele>
        <time>2018-11-14T23:16:02+01:00</time>
      </trkpt>
      <trkpt lat="43.29439" lon="6.45439">
        <ele>502</ele>
        <time>2018-11-14T23:16:07+01:00</time>
      </trkpt>
      <trkpt lat="43.29506" lon="6.45443">
        <ele>494</ele>
        <time>2018-11-14T23:16:12+01:00</time>
      </trkpt>
      <trkpt lat="43.29535" lon="6.45465">
        <ele>496</ele>
        <time>2018-11-14T23:16:17+01:00</time>
      </trkpt>
      <trkpt lat="43.29578" lon="6.45394">
        <ele>487</ele>
        <time>2018-11-14T23:16:22+01:00</time>
      </trkpt>
      <trkpt lat="43.29653" lon="6.45322">
        <ele>479</ele>
        <time>2018-11-14T23:16:27+01:00</time>
      </trkpt>
      <trkpt lat="43.29667" lon="6.45273">
        <ele>480</ele>
        <time>2018-11-14T23:16:32+01:00</time>
      </trkpt>
      <trkpt lat="43.29642" lon="6.45187">
        <ele>476</ele>
        <time>2018-11-14T23:16:37+01:00</time>
      </trkpt>
      <trkpt lat="43.29645" lon="6.45118">
        <ele>472</ele>
        <time>2018-11-14T23:16:42+01:00</time>
      </trkpt>
      <trkpt lat="43.29658" lon="6.44969">
        <ele>457</ele>
        <time>2018-11-14T23:16:47+01:00</time>
      </trkpt>
      <trkpt lat="43.29697" lon="6.44922">
        <ele>460</ele>
        <time>2018-11-14T23:16:52+01:00</time>
      </trkpt>
      <trkpt lat="43.29666" lon="6.44803">
        <ele>452</ele>
        <time>2018-11-14T23:16:57+01:00</time>
      </trkpt>
      <trkpt lat="43.29631" lon="6.44748">
        <ele>446</ele>
        <time>2018-11-14T23:17:02+01:00</time>
      </trkpt>
      <trkpt lat="43.2963" lon="6.44675">
        <ele>448</ele>
        <time>2018-11-14T23:17:07+01:00</time>
      </trkpt>
      <trkpt lat="43.29614" lon="6.44623">
        <ele>441</ele>
        <time>2018-11-14T23:17:12+01:00</time>
      </trkpt>
      <trkpt lat="43.29635" lon="6.44517">
        <ele>442</ele>
        <time>2018-11-14T23:17:17+01:00</time>
      </trkpt>
      <trkpt lat="43.29629" lon="6.4447">
        <ele>436</ele>
        <time>2018-11-14T23:17:22+01:00</time>
      </trkpt>
      <trkpt lat="43.29644" lon="6.4437">
        <ele>433</ele>
        <time>2018-11-14T23:17:27+01:00</time>
      </trkpt>
      <trkpt lat="43.29621" lon="6.44335">
        <ele>434</ele>
        <time>2018-11-14T23:17:32+01:00</time>
      </trkpt>
      <trkpt lat="43.29581" lon="6.44325">
        <ele>428</ele>
        <time>2018-11-14T23:17:37+01:00</time>
      </trkpt>
      <trkpt lat="43.29566" lon="6.44291">
        <ele>428</ele>
        <time>2018-11-14T23:17:42+01:00</time>
      </trkpt>
      <trkpt lat="43.2955" lon="6.44258">
        <ele>427</ele>
        <time>2018-11-14T23:17:47+01:00</time>
      </trkpt>
      <trkpt lat="43.29553" lon="6.4421">
        <ele>426</ele>
        <time>2018-11-14T23:17:52+01:00</time>
      </trkpt>
      <trkpt lat="43.2954" lon="6.44159">
        <ele>424</ele>
        <time>2018-11-14T23:17:57+01:00</time>
      </trkpt>
      <trkpt lat="43.29485" lon="6.44123">
        <ele>417</ele>
        <time>2018-11-14T23:18:02+01:00</time>
      </trkpt>
      <trkpt lat="43.2947" lon="6.44084">
        <ele>418</ele>
        <time>2018-11-14T23:18:07+01:00</time>
      </trkpt>
      <trkpt lat="43.29473" lon="6.43936">
        <ele>415</ele>
        <time>2018-11-14T23:18:12+01:00</time>
      </trkpt>
      <trkpt lat="43.29499" lon="6.43808">
        <ele>410</ele>
        <time>2018-11-14T23:18:17+01:00</time>
      </trkpt>
      <trkpt lat="43.29544" lon="6.43704">
        <ele>411</ele>
        <time>2018-11-14T23:18:22+01:00</time>
      </trkpt>
      <trkpt lat="43.29577" lon="6.43631">
        <ele>408</ele>
        <time>2018-11-14T23:18:27+01:00</time>
      </trkpt>
      <trkpt lat="43.29606" lon="6.43629">
        <ele>407</ele>
        <time>2018-11-14T23:18:32+01:00</time>
      </trkpt>
      <trkpt lat="43.29635" lon="6.43642">
        <ele>408</ele>
        <time>2018-11-14T23:18:37+01:00</time>
      </trkpt>
      <trkpt lat="43.29664" lon="6.43645">
        <ele>406</ele>
        <time>2018-11-14T23:18:42+01:00</time>
      </trkpt>
      <trkpt lat="43.29745" lon="6.43603">
        <ele>398</ele>
        <time>2018-11-14T23:18:47+01:00</time>
      </trkpt>
      <trkpt lat="43.29784" lon="6.43611">
        <ele>403</ele>
        <time>2018-11-14T23:18:52+01:00</time>
      </trkpt>
      <trkpt lat="43.29796" lon="6.43603">
        <ele>404</ele>
        <time>2018-11-14T23:18:57+01:00</time>
      </trkpt>
      <trkpt lat="43.29799" lon="6.43559">
        <ele>400</ele>
        <time>2018-11-14T23:19:02+01:00</time>
      </trkpt>
      <trkpt lat="43.29786" lon="6.43537">
        <ele>401</ele>
        <time>2018-11-14T23:19:07+01:00</time>
      </trkpt>
      <trkpt lat="43.29724" lon="6.4345">
        <ele>393</ele>
        <time>2018-11-14T23:19:12+01:00</time>
      </trkpt>
      <trkpt lat="43.29713" lon="6.43392">
        <ele>392</ele>
        <time>2018-11-14T23:19:17+01:00</time>
      </trkpt>
      <trkpt lat="43.29732" lon="6.43297">
        <ele>387</ele>
        <time>2018-11-14T23:19:22+01:00</time>
      </trkpt>
      <trkpt lat="43.29776" lon="6.43203">
        <ele>388</ele>
        <time>2018-11-14T23:19:27+01:00</time>
      </trkpt>
      <trkpt lat="43.29734" lon="6.43161">
        <ele>380</ele>
        <time>2018-11-14T23:19:32+01:00</time>
      </trkpt>
      <trkpt lat="43.29742" lon="6.4309">
        <ele>380</ele>
        <time>2018-11-14T23:19:37+01:00</time>
      </trkpt>
      <trkpt lat="43.29762" lon="6.43048">
        <ele>378</ele>
        <time>2018-11-14T23:19:42+01:00</time>
      </trkpt>
      <trkpt lat="43.29803" lon="6.42993">
        <ele>377</ele>
        <time>2018-11-14T23:19:47+01:00</time>
      </trkpt>
      <trkpt lat="43.29777" lon="6.4297">
        <ele>372</ele>
        <time>2018-11-14T23:19:52+01:00</time>
      </trkpt>
      <trkpt lat="43.29775" lon="6.42924">
        <ele>372</ele>
        <time>2018-11-14T23:19:57+01:00</time>
      </trkpt>
      <trkpt lat="43.29806" lon="6.42907">
        <ele>379</ele>
        <time>2018-11-14T23:20:02+01:00</time>
      </trkpt>
      <trkpt lat="43.29765" lon="6.42832">
        <ele>373</ele>
        <time>2018-11-14T23:20:07+01:00</time>
      </trkpt>
      <trkpt lat="43.29788" lon="6.42619">
        <ele>377</ele>
        <time>2018-11-14T23:20:12+01:00</time>
      </trkpt>
      <trkpt lat="43.29682" lon="6.42715">
        <ele>373</ele>
        <time>2018-11-14T23:20:17+01:00</time>
      </trkpt>
      <trkpt lat="43.29628" lon="6.42804">
        <ele>369</ele>
        <time>2018-11-14T23:20:22+01:00</time>
      </trkpt>
      <trkpt lat="43.29595" lon="6.42828">
        <ele>369</ele>
        <time>2018-11-14T23:20:27+01:00</time>
      </trkpt>
      <trkpt lat="43.29574" lon="6.42819">
        <ele>369</ele>
        <time>2018-11-14T23:20:32+01:00</time>
      </trkpt>
      <trkpt lat="43.29549" lon="6.42769">
        <ele>374</ele>
        <time>2018-11-14T23:20:37+01:00</time>
      </trkpt>
      <trkpt lat="43.29469" lon="6.42832">
        <ele>369</ele>
        <time>2018-11-14T23:20:42+01:00</time>
      </trkpt>
      <trkpt lat="43.2944" lon="6.42749">
        <ele>368</ele>
        <time>2018-11-14T23:20:47+01:00</time>
      </trkpt>
      <trkpt lat="43.29452" lon="6.42663">
        <ele>367</ele>
        <time>2018-11-14T23:20:52+01:00</time>
      </trkpt>
      <trkpt lat="43.2945" lon="6.42604">
        <ele>370</ele>
        <time>2018-11-14T23:20:57+01:00</time>
      </trkpt>
      <trkpt lat="43.29417" lon="6.42606">
        <ele>367</ele>
        <time>2018-11-14T23:21:02+01:00</time>
      </trkpt>
      <trkpt lat="43.29392" lon="6.42585">
        <ele>367</ele>
        <time>2018-11-14T23:21:07+01:00</time>
      </trkpt>
      <trkpt lat="43.29367" lon="6.42619">
        <ele>365</ele>
        <time>2018-11-14T23:21:12+01:00</time>
      </trkpt>
      <trkpt lat="43.29337" lon="6.42627">
        <ele>363</ele>
        <time>2018-11-14T23:21:17+01:00</time>
      </trkpt>
      <trkpt lat="43.29204" lon="6.42516">
        <ele>364</ele>
        <time>2018-11-14T23:21:22+01:00</time>
      </trkpt>
      <trkpt lat="43.29127" lon="6.42501">
        <ele>362</ele>
        <time>2018-11-14T23:21:27+01:00</time>
      </trkpt>
      <trkpt lat="43.29046" lon="6.42525">
        <ele>357</ele>
        <time>2018-11-14T23:21:32+01:00</time>
      </trkpt>
      <trkpt lat="43.29011" lon="6.42508">
        <ele>355</ele>
        <time>2018-11-14T23:21:37+01:00</time>
      </trkpt>
      <trkpt lat="43.28939" lon="6.42423">
        <ele>355</ele>
        <time>2018-11-14T23:21:42+01:00</time>
      </trkpt>
      <trkpt lat="43.28965" lon="6.42305">
        <ele>360</ele>
        <time>2018-11-14T23:21:47+01:00</time>
      </trkpt>
      <trkpt lat="43.28957" lon="6.42233">
        <ele>358</ele>
        <time>2018-11-14T23:21:52+01:00</time>
      </trkpt>
      <trkpt lat="43.28882" lon="6.4211">
        <ele>352</ele>
        <time>2018-11-14T23:21:57+01:00</time>
      </trkpt>
      <trkpt lat="43.28883" lon="6.41963">
        <ele>352</ele>
        <time>2018-11-14T23:22:02+01:00</time>
      </trkpt>
      <trkpt lat="43.28887" lon="6.41987">
        <ele>353</ele>
        <time>2018-11-14T23:22:07+01:00</time>
      </trkpt>
      <trkpt lat="43.28903" lon="6.42096">
        <ele>364</ele>
        <time>2018-11-14T23:22:12+01:00</time>
      </trkpt>
      <trkpt lat="43.29015" lon="6.4222">
        <ele>395</ele>
        <time>2018-11-14T23:22:17+01:00</time>
      </trkpt>
      <trkpt lat="43.29017" lon="6.42285">
        <ele>391</ele>
        <time>2018-11-14T23:22:22+01:00</time>
      </trkpt>
      <trkpt lat="43.29063" lon="6.42427">
        <ele>396</ele>
        <time>2018-11-14T23:22:27+01:00</time>
      </trkpt>
      <trkpt lat="43.29081" lon="6.42433">
        <ele>396</ele>
        <time>2018-11-14T23:22:32+01:00</time>
      </trkpt>
      <trkpt lat="43.29112" lon="6.42421">
        <ele>399</ele>
        <time>2018-11-14T23:22:37+01:00</time>
      </trkpt>
      <trkpt lat="43.29263" lon="6.42432">
        <ele>408</ele>
        <time>2018-11-14T23:22:42+01:00</time>
      </trkpt>
      <trkpt lat="43.29347" lon="6.42437">
        <ele>415</ele>
        <time>2018-11-14T23:22:47+01:00</time>
      </trkpt>
      <trkpt lat="43.2941" lon="6.42425">
        <ele>423</ele>
        <time>2018-11-14T23:22:52+01:00</time>
      </trkpt>
      <trkpt lat="43.29435" lon="6.42429">
        <ele>423</ele>
        <time>2018-11-14T23:22:57+01:00</time>
      </trkpt>
      <trkpt lat="43.29468" lon="6.42401">
        <ele>425</ele>
        <time>2018-11-14T23:23:02+01:00</time>
      </trkpt>
      <trkpt lat="43.29475" lon="6.42369">
        <ele>431</ele>
        <time>2018-11-14T23:23:07+01:00</time>
      </trkpt>
      <trkpt lat="43.29505" lon="6.42364">
        <ele>434</ele>
        <time>2018-11-14T23:23:12+01:00</time>
      </trkpt>
      <trkpt lat="43.29609" lon="6.42393">
        <ele>444</ele>
        <time>2018-11-14T23:23:17+01:00</time>
      </trkpt>
      <trkpt lat="43.29693" lon="6.42498">
        <ele>449</ele>
        <time>2018-11-14T23:23:22+01:00</time>
      </trkpt>
      <trkpt lat="43.29705" lon="6.42492">
        <ele>450</ele>
        <time>2018-11-14T23:23:27+01:00</time>
      </trkpt>
      <trkpt lat="43.29628" lon="6.42347">
        <ele>466</ele>
        <time>2018-11-14T23:23:32+01:00</time>
      </trkpt>
      <trkpt lat="43.2954" lon="6.42257">
        <ele>473</ele>
        <time>2018-11-14T23:23:37+01:00</time>
      </trkpt>
      <trkpt lat="43.29466" lon="6.42149">
        <ele>481</ele>
        <time>2018-11-14T23:23:42+01:00</time>
      </trkpt>
      <trkpt lat="43.29474" lon="6.42115">
        <ele>484</ele>
        <time>2018-11-14T23:23:47+01:00</time>
      </trkpt>
      <trkpt lat="43.29507" lon="6.42089">
        <ele>490</ele>
        <time>2018-11-14T23:23:52+01:00</time>
      </trkpt>
      <trkpt lat="43.29514" lon="6.42066">
        <ele>488</ele>
        <time>2018-11-14T23:23:57+01:00</time>
      </trkpt>
      <trkpt lat="43.29528" lon="6.42055">
        <ele>491</ele>
        <time>2018-11-14T23:24:02+01:00</time>
      </trkpt>
      <trkpt lat="43.29556" lon="6.42082">
        <ele>494</ele>
        <time>2018-11-14T23:24:07+01:00</time>
      </trkpt>
      <trkpt lat="43.29623" lon="6.42138">
        <ele>500</ele>
        <time>2018-11-14T23:24:12+01:00</time>
      </trkpt>
      <trkpt lat="43.29661" lon="6.42144">
        <ele>503</ele>
        <time>2018-11-14T23:24:17+01:00</time>
      </trkpt>
      <trkpt lat="43.29708" lon="6.42119">
        <ele>510</ele>
        <time>2018-11-14T23:24:22+01:00</time>
      </trkpt>
      <trkpt lat="43.29771" lon="6.41907">
        <ele>528</ele>
        <time>2018-11-14T23:24:27+01:00</time>
      </trkpt>
      <trkpt lat="43.29773" lon="6.41811">
        <ele>527</ele>
        <time>2018-11-14T23:24:32+01:00</time>
      </trkpt>
      <trkpt lat="43.29866" lon="6.41653">
        <ele>544</ele>
        <time>2018-11-14T23:24:37+01:00</time>
      </trkpt>
      <trkpt lat="43.2989" lon="6.41574">
        <ele>554</ele>
        <time>2018-11-14T23:24:42+01:00</time>
      </trkpt>
      <trkpt lat="43.29881" lon="6.41403">
        <ele>561</ele>
        <time>2018-11-14T23:24:47+01:00</time>
      </trkpt>
      <trkpt lat="43.29887" lon="6.41303">
        <ele>567</ele>
        <time>2018-11-14T23:24:52+01:00</time>
      </trkpt>
      <trkpt lat="43.29916" lon="6.41215">
        <ele>578</ele>
        <time>2018-11-14T23:24:57+01:00</time>
      </trkpt>
      <trkpt lat="43.29916" lon="6.41318">
        <ele>578</ele>
        <time>2018-11-14T23:25:02+01:00</time>
      </trkpt>
      <trkpt lat="43.29903" lon="6.41379">
        <ele>573</ele>
        <time>2018-11-14T23:25:07+01:00</time>
      </trkpt>
      <trkpt lat="43.29944" lon="6.41566">
        <ele>575</ele>
        <time>2018-11-14T23:25:12+01:00</time>
      </trkpt>
      <trkpt lat="43.29994" lon="6.41627">
        <ele>575</ele>
        <time>2018-11-14T23:25:17+01:00</time>
      </trkpt>
      <trkpt lat="43.30041" lon="6.41648">
        <ele>577</ele>
        <time>2018-11-14T23:25:22+01:00</time>
      </trkpt>
      <trkpt lat="43.3008" lon="6.41733">
        <ele>579</ele>
        <time>2018-11-14T23:25:27+01:00</time>
      </trkpt>
      <trkpt lat="43.30087" lon="6.41711">
        <ele>585</ele>
        <time>2018-11-14T23:25:32+01:00</time>
      </trkpt>
      <trkpt lat="43.30039" lon="6.41595">
        <ele>582</ele>
        <time>2018-11-14T23:25:37+01:00</time>
      </trkpt>
      <trkpt lat="43.3005" lon="6.41566">
        <ele>582</ele>
        <time>2018-11-14T23:25:42+01:00</time>
      </trkpt>
      <trkpt lat="43.30086" lon="6.41547">
        <ele>585</ele>
        <time>2018-11-14T23:25:47+01:00</time>
      </trkpt>
      <trkpt lat="43.30109" lon="6.41521">
        <ele>589</ele>
        <time>2018-11-14T23:25:52+01:00</time>
      </trkpt>
      <trkpt lat="43.3013" lon="6.41427">
        <ele>588</ele>
        <time>2018-11-14T23:25:57+01:00</time>
      </trkpt>
      <trkpt lat="43.30176" lon="6.41324">
        <ele>584</ele>
        <time>2018-11-14T23:26:02+01:00</time>
      </trkpt>
      <trkpt lat="43.30066" lon="6.41482">
        <ele>571</ele>
        <time>2018-11-14T23:26:07+01:00</time>
      </trkpt>
      <trkpt lat="43.29985" lon="6.41215">
        <ele>543</ele>
        <time>2018-11-14T23:26:12+01:00</time>
      </trkpt>
      <trkpt lat="43.30003" lon="6.41142">
        <ele>534</ele>
        <time>2018-11-14T23:26:17+01:00</time>
      </trkpt>
      <trkpt lat="43.29998" lon="6.41074">
        <ele>533</ele>
        <time>2018-11-14T23:26:22+01:00</time>
      </trkpt>
      <trkpt lat="43.30018" lon="6.41037">
        <ele>521</ele>
        <time>2018-11-14T23:26:27+01:00</time>
      </trkpt>
      <trkpt lat="43.30016" lon="6.40943">
        <ele>518</ele>
        <time>2018-11-14T23:26:32+01:00</time>
      </trkpt>
      <trkpt lat="43.30043" lon="6.40917">
        <ele>510</ele>
        <time>2018-11-14T23:26:37+01:00</time>
      </trkpt>
      <trkpt lat="43.30064" lon="6.4087">
        <ele>508</ele>
        <time>2018-11-14T23:26:42+01:00</time>
      </trkpt>
      <trkpt lat="43.30053" lon="6.40801">
        <ele>505</ele>
        <time>2018-11-14T23:26:47+01:00</time>
      </trkpt>
      <trkpt lat="43.30027" lon="6.40776">
        <ele>507</ele>
        <time>2018-11-14T23:26:52+01:00</time>
      </trkpt>
      <trkpt lat="43.3002" lon="6.40739">
        <ele>504</ele>
        <time>2018-11-14T23:26:57+01:00</time>
      </trkpt>
      <trkpt lat="43.30048" lon="6.40714">
        <ele>495</ele>
        <time>2018-11-14T23:27:02+01:00</time>
      </trkpt>
      <trkpt lat="43.30065" lon="6.40688">
        <ele>496</ele>
        <time>2018-11-14T23:27:07+01:00</time>
      </trkpt>
      <trkpt lat="43.3016" lon="6.40664">
        <ele>480</ele>
        <time>2018-11-14T23:27:12+01:00</time>
      </trkpt>
      <trkpt lat="43.30205" lon="6.40619">
        <ele>473</ele>
        <time>2018-11-14T23:27:17+01:00</time>
      </trkpt>
      <trkpt lat="43.30234" lon="6.40571">
        <ele>475</ele>
        <time>2018-11-14T23:27:22+01:00</time>
      </trkpt>
      <trkpt lat="43.3029" lon="6.40557">
        <ele>473</ele>
        <time>2018-11-14T23:27:27+01:00</time>
      </trkpt>
      <trkpt lat="43.3034" lon="6.40573">
        <ele>468</ele>
        <time>2018-11-14T23:27:32+01:00</time>
      </trkpt>
      <trkpt lat="43.3041" lon="6.40578">
        <ele>467</ele>
        <time>2018-11-14T23:27:37+01:00</time>
      </trkpt>
      <trkpt lat="43.30453" lon="6.40632">
        <ele>455</ele>
        <time>2018-11-14T23:27:42+01:00</time>
      </trkpt>
      <trkpt lat="43.3049" lon="6.40636">
        <ele>453</ele>
        <time>2018-11-14T23:27:47+01:00</time>
      </trkpt>
      <trkpt lat="43.30586" lon="6.4056">
        <ele>442</ele>
        <time>2018-11-14T23:27:52+01:00</time>
      </trkpt>
      <trkpt lat="43.30623" lon="6.40484">
        <ele>437</ele>
        <time>2018-11-14T23:27:57+01:00</time>
      </trkpt>
      <trkpt lat="43.30623" lon="6.40452">
        <ele>435</ele>
        <time>2018-11-14T23:28:02+01:00</time>
      </trkpt>
      <trkpt lat="43.30592" lon="6.4043">
        <ele>434</ele>
        <time>2018-11-14T23:28:07+01:00</time>
      </trkpt>
      <trkpt lat="43.30556" lon="6.4042">
        <ele>434</ele>
        <time>2018-11-14T23:28:12+01:00</time>
      </trkpt>
      <trkpt lat="43.30542" lon="6.40401">
        <ele>432</ele>
        <time>2018-11-14T23:28:17+01:00</time>
      </trkpt>
      <trkpt lat="43.30535" lon="6.40361">
        <ele>423</ele>
        <time>2018-11-14T23:28:22+01:00</time>
      </trkpt>
      <trkpt lat="43.30516" lon="6.4033">
        <ele>425</ele>
        <time>2018-11-14T23:28:27+01:00</time>
      </trkpt>
      <trkpt lat="43.30542" lon="6.40241">
        <ele>417</ele>
        <time>2018-11-14T23:28:32+01:00</time>
      </trkpt>
      <trkpt lat="43.30579" lon="6.40022">
        <ele>400</ele>
        <time>2018-11-14T23:28:37+01:00</time>
      </trkpt>
      <trkpt lat="43.3062" lon="6.39886">
        <ele>394</ele>
        <time>2018-11-14T23:28:42+01:00</time>
      </trkpt>
      <trkpt lat="43.30713" lon="6.39791">
        <ele>395</ele>
        <time>2018-11-14T23:28:47+01:00</time>
      </trkpt>
      <trkpt lat="43.30797" lon="6.39828">
        <ele>377</ele>
        <time>2018-11-14T23:28:52+01:00</time>
      </trkpt>
      <trkpt lat="43.30812" lon="6.39775">
        <ele>385</ele>
        <time>2018-11-14T23:28:57+01:00</time>
      </trkpt>
      <trkpt lat="43.30851" lon="6.39726">
        <ele>382</ele>
        <time>2018-11-14T23:29:02+01:00</time>
      </trkpt>
      <trkpt lat="43.30932" lon="6.3972">
        <ele>369</ele>
        <time>2018-11-14T23:29:07+01:00</time>
      </trkpt>
      <trkpt lat="43.30999" lon="6.39677">
        <ele>363</ele>
        <time>2018-11-14T23:29:12+01:00</time>
      </trkpt>
      <trkpt lat="43.31063" lon="6.39672">
        <ele>358</ele>
        <time>2018-11-14T23:29:17+01:00</time>
      </trkpt>
      <trkpt lat="43.3108" lon="6.39643">
        <ele>354</ele>
        <time>2018-11-14T23:29:22+01:00</time>
      </trkpt>
      <trkpt lat="43.31089" lon="6.39583">
        <ele>356</ele>
        <time>2018-11-14T23:29:27+01:00</time>
      </trkpt>
      <trkpt lat="43.31166" lon="6.39599">
        <ele>348</ele>
        <time>2018-11-14T23:29:32+01:00</time>
      </trkpt>
      <trkpt lat="43.31202" lon="6.39551">
        <ele>347</ele>
        <time>2018-11-14T23:29:37+01:00</time>
      </trkpt>
      <trkpt lat="43.31244" lon="6.39568">
        <ele>339</ele>
        <time>2018-11-14T23:29:42+01:00</time>
      </trkpt>
      <trkpt lat="43.31269" lon="6.39558">
        <ele>338</ele>
        <time>2018-11-14T23:29:47+01:00</time>
      </trkpt>
      <trkpt lat="43.31302" lon="6.39514">
        <ele>339</ele>
        <time>2018-11-14T23:29:52+01:00</time>
      </trkpt>
      <trkpt lat="43.31323" lon="6.39525">
        <ele>339</ele>
        <time>2018-11-14T23:29:57+01:00</time>
      </trkpt>
      <trkpt lat="43.31365" lon="6.39638">
        <ele>331</ele>
        <time>2018-11-14T23:30:02+01:00</time>
      </trkpt>
      <trkpt lat="43.31387" lon="6.39756">
        <ele>320</ele>
        <time>2018-11-14T23:30:07+01:00</time>
      </trkpt>
      <trkpt lat="43.31447" lon="6.39821">
        <ele>320</ele>
        <time>2018-11-14T23:30:12+01:00</time>
      </trkpt>
      <trkpt lat="43.31466" lon="6.39863">
        <ele>314</ele>
        <time>2018-11-14T23:30:17+01:00</time>
      </trkpt>
      <trkpt lat="43.31482" lon="6.39934">
        <ele>312</ele>
        <time>2018-11-14T23:30:22+01:00</time>
      </trkpt>
      <trkpt lat="43.31498" lon="6.39976">
        <ele>311</ele>
        <time>2018-11-14T23:30:27+01:00</time>
      </trkpt>
      <trkpt lat="43.31476" lon="6.40019">
        <ele>305</ele>
        <time>2018-11-14T23:30:32+01:00</time>
      </trkpt>
      <trkpt lat="43.31522" lon="6.40125">
        <ele>297</ele>
        <time>2018-11-14T23:30:37+01:00</time>
      </trkpt>
      <trkpt lat="43.31569" lon="6.40132">
        <ele>294</ele>
        <time>2018-11-14T23:30:42+01:00</time>
      </trkpt>
      <trkpt lat="43.31679" lon="6.40003">
        <ele>285</ele>
        <time>2018-11-14T23:30:47+01:00</time>
      </trkpt>
      <trkpt lat="43.3171" lon="6.39949">
        <ele>287</ele>
        <time>2018-11-14T23:30:52+01:00</time>
      </trkpt>
      <trkpt lat="43.31741" lon="6.40001">
        <ele>283</ele>
        <time>2018-11-14T23:30:57+01:00</time>
      </trkpt>
      <trkpt lat="43.31847" lon="6.40373">
        <ele>255</ele>
        <time>2018-11-14T23:31:02+01:00</time>
      </trkpt>
      <trkpt lat="43.31871" lon="6.40372">
        <ele>256</ele>
        <time>2018-11-14T23:31:07+01:00</time>
      </trkpt>
      <trkpt lat="43.31912" lon="6.40298">
        <ele>249</ele>
        <time>2018-11-14T23:31:12+01:00</time>
      </trkpt>
      <trkpt lat="43.31928" lon="6.40155">
        <ele>248</ele>
        <time>2018-11-14T23:31:17+01:00</time>
      </trkpt>
      <trkpt lat="43.31952" lon="6.39954">
        <ele>233</ele>
        <time>2018-11-14T23:31:22+01:00</time>
      </trkpt>
      <trkpt lat="43.31946" lon="6.39868">
        <ele>233</ele>
        <time>2018-11-14T23:31:27+01:00</time>
      </trkpt>
      <trkpt lat="43.31964" lon="6.39827">
        <ele>223</ele>
        <time>2018-11-14T23:31:32+01:00</time>
      </trkpt>
      <trkpt lat="43.31955" lon="6.39751">
        <ele>221</ele>
        <time>2018-11-14T23:31:37+01:00</time>
      </trkpt>
      <trkpt lat="43.32013" lon="6.39707">
        <ele>211</ele>
        <time>2018-11-14T23:31:42+01:00</time>
      </trkpt>
      <trkpt lat="43.32031" lon="6.39627">
        <ele>205</ele>
        <time>2018-11-14T23:31:47+01:00</time>
      </trkpt>
      <trkpt lat="43.3203" lon="6.39585">
        <ele>204</ele>
        <time>2018-11-14T23:31:52+01:00</time>
      </trkpt>
      <trkpt lat="43.32081" lon="6.39573">
        <ele>195</ele>
        <time>2018-11-14T23:31:57+01:00</time>
      </trkpt>
      <trkpt lat="43.32104" lon="6.39494">
        <ele>193</ele>
        <time>2018-11-14T23:32:02+01:00</time>
      </trkpt>
      <trkpt lat="43.32131" lon="6.39407">
        <ele>188</ele>
        <time>2018-11-14T23:32:07+01:00</time>
      </trkpt>
      <trkpt lat="43.32165" lon="6.39342">
        <ele>183</ele>
        <time>2018-11-14T23:32:12+01:00</time>
      </trkpt>
      <trkpt lat="43.32197" lon="6.39314">
        <ele>181</ele>
        <time>2018-11-14T23:32:17+01:00</time>
      </trkpt>
      <trkpt lat="43.32305" lon="6.39382">
        <ele>165</ele>
        <time>2018-11-14T23:32:22+01:00</time>
      </trkpt>
      <trkpt lat="43.3236" lon="6.39389">
        <ele>158</ele>
        <time>2018-11-14T23:32:27+01:00</time>
      </trkpt>
      <trkpt lat="43.32505" lon="6.39453">
        <ele>141</ele>
        <time>2018-11-14T23:32:32+01:00</time>
      </trkpt>
      <trkpt lat="43.32596" lon="6.39491">
        <ele>136</ele>
        <time>2018-11-14T23:32:37+01:00</time>
      </trkpt>
      <trkpt lat="43.32661" lon="6.39489">
        <ele>133</ele>
        <time>2018-11-14T23:32:42+01:00</time>
      </trkpt>
      <trkpt lat="43.32642" lon="6.39697">
        <ele>133</ele>
        <time>2018-11-14T23:32:47+01:00</time>
      </trkpt>
      <trkpt lat="43.32616" lon="6.39837">
        <ele>131</ele>
        <time>2018-11-14T23:32:52+01:00</time>
      </trkpt>
      <trkpt lat="43.32674" lon="6.39949">
        <ele>128</ele>
        <time>2018-11-14T23:32:57+01:00</time>
      </trkpt>
      <trkpt lat="43.32674" lon="6.40332">
        <ele>126</ele>
        <time>2018-11-14T23:33:02+01:00</time>
      </trkpt>
      <trkpt lat="43.32824" lon="6.40457">
        <ele>125</ele>
        <time>2018-11-14T23:33:07+01:00</time>
      </trkpt>
      <trkpt lat="43.32919" lon="6.40476">
        <ele>125</ele>
        <time>2018-11-14T23:33:12+01:00</time>
      </trkpt>
      <trkpt lat="43.33189" lon="6.40487">
        <ele>120</ele>
        <time>2018-11-14T23:33:17+01:00</time>
      </trkpt>
      <trkpt lat="43.33277" lon="6.40511">
        <ele>119</ele>
        <time>2018-11-14T23:33:22+01:00</time>
      </trkpt>
      <trkpt lat="43.33376" lon="6.40543">
        <ele>115</ele>
        <time>2018-11-14T23:33:27+01:00</time>
      </trkpt>
      <trkpt lat="43.33478" lon="6.40562">
        <ele>113</ele>
        <time>2018-11-14T23:33:32+01:00</time>
      </trkpt>
      <trkpt lat="43.3352" lon="6.40564">
        <ele>112</ele>
        <time>2018-11-14T23:33:37+01:00</time>
      </trkpt>
      <trkpt lat="43.336" lon="6.40526">
        <ele>110</ele>
        <time>2018-11-14T23:33:42+01:00</time>
      </trkpt>
      <trkpt lat="43.33592" lon="6.40588">
        <ele>110</ele>
        <time>2018-11-14T23:33:47+01:00</time>
      </trkpt>
      <trkpt lat="43.33536" lon="6.40693">
        <ele>110</ele>
        <time>2018-11-14T23:33:52+01:00</time>
      </trkpt>
      <trkpt lat="43.33535" lon="6.4074">
        <ele>110</ele>
        <time>2018-11-14T23:33:57+01:00</time>
      </trkpt>
      <trkpt lat="43.33572" lon="6.40798">
        <ele>108</ele>
        <time>2018-11-14T23:34:02+01:00</time>
      </trkpt>
      <trkpt lat="43.33588" lon="6.40844">
        <ele>108</ele>
        <time>2018-11-14T23:34:07+01:00</time>
      </trkpt>
      <trkpt lat="43.33584" lon="6.40897">
        <ele>107</ele>
        <time>2018-11-14T23:34:12+01:00</time>
      </trkpt>
      <trkpt lat="43.33567" lon="6.40922">
        <ele>107</ele>
        <time>2018-11-14T23:34:17+01:00</time>
      </trkpt>
      <trkpt lat="43.33581" lon="6.41015">
        <ele>104</ele>
        <time>2018-11-14T23:34:22+01:00</time>
      </trkpt>
      <trkpt lat="43.33573" lon="6.41062">
        <ele>104</ele>
        <time>2018-11-14T23:34:27+01:00</time>
      </trkpt>
      <trkpt lat="43.33577" lon="6.4112">
        <ele>106</ele>
        <time>2018-11-14T23:34:32+01:00</time>
      </trkpt>
      <trkpt lat="43.33589" lon="6.41163">
        <ele>107</ele>
        <time>2018-11-14T23:34:37+01:00</time>
      </trkpt>
      <trkpt lat="43.336" lon="6.41281">
        <ele>105</ele>
        <time>2018-11-14T23:34:42+01:00</time>
      </trkpt>
      <trkpt lat="43.33528" lon="6.4135">
        <ele>107</ele>
        <time>2018-11-14T23:34:47+01:00</time>
      </trkpt>
      <trkpt lat="43.33504" lon="6.41403">
        <ele>110</ele>
        <time>2018-11-14T23:34:52+01:00</time>
      </trkpt>
      <trkpt lat="43.3349" lon="6.41461">
        <ele>113</ele>
        <time>2018-11-14T23:34:57+01:00</time>
      </trkpt>
      <trkpt lat="43.33581" lon="6.41397">
        <ele>110</ele>
        <time>2018-11-14T23:35:02+01:00</time>
      </trkpt>
      <trkpt lat="43.33605" lon="6.41372">
        <ele>109</ele>
        <time>2018-11-14T23:35:07+01:00</time>
      </trkpt>
      <trkpt lat="43.33732" lon="6.41356">
        <ele>105</ele>
        <time>2018-11-14T23:35:12+01:00</time>
      </trkpt>
      <trkpt lat="43.33879" lon="6.41339">
        <ele>105</ele>
        <time>2018-11-14T23:35:17+01:00</time>
      </trkpt>
      <trkpt lat="43.33929" lon="6.41318">
        <ele>105</ele>
        <time>2018-11-14T23:35:22+01:00</time>
      </trkpt>
      <trkpt lat="43.33964" lon="6.4133">
        <ele>105</ele>
        <time>2018-11-14T23:35:27+01:00</time>
      </trkpt>
      <trkpt lat="43.34026" lon="6.41337">
        <ele>105</ele>
        <time>2018-11-14T23:35:32+01:00</time>
      </trkpt>
      <trkpt lat="43.34112" lon="6.4131">
        <ele>103</ele>
        <time>2018-11-14T23:35:37+01:00</time>
      </trkpt>
      <trkpt lat="43.34149" lon="6.41332">
        <ele>101</ele>
        <time>2018-11-14T23:35:42+01:00</time>
      </trkpt>
      <trkpt lat="43.34225" lon="6.41321">
        <ele>99</ele>
        <time>2018-11-14T23:35:47+01:00</time>
      </trkpt>
      <trkpt lat="43.34327" lon="6.41294">
        <ele>95</ele>
        <time>2018-11-14T23:35:52+01:00</time>
      </trkpt>
      <trkpt lat="43.34334" lon="6.41333">
        <ele>95</ele>
        <time>2018-11-14T23:35:57+01:00</time>
      </trkpt>
      <trkpt lat="43.34351" lon="6.41348">
        <ele>96</ele>
        <time>2018-11-14T23:36:02+01:00</time>
      </trkpt>
      <trkpt lat="43.3439" lon="6.41299">
        <ele>96</ele>
        <time>2018-11-14T23:36:07+01:00</time>
      </trkpt>
      <trkpt lat="43.34427" lon="6.41341">
        <ele>100</ele>
        <time>2018-11-14T23:36:12+01:00</time>
      </trkpt>
      <trkpt lat="43.34435" lon="6.41369">
        <ele>100</ele>
        <time>2018-11-14T23:36:17+01:00</time>
      </trkpt>
      <trkpt lat="43.34416" lon="6.41455">
        <ele>100</ele>
        <time>2018-11-14T23:36:22+01:00</time>
      </trkpt>
      <trkpt lat="43.34372" lon="6.41551">
        <ele>100</ele>
        <time>2018-11-14T23:36:27+01:00</time>
      </trkpt>
      <trkpt lat="43.34385" lon="6.41667">
        <ele>100</ele>
        <time>2018-11-14T23:36:32+01:00</time>
      </trkpt>
      <trkpt lat="43.34442" lon="6.41674">
        <ele>100</ele>
        <time>2018-11-14T23:36:37+01:00</time>
      </trkpt>
      <trkpt lat="43.34447" lon="6.41751">
        <ele>100</ele>
        <time>2018-11-14T23:36:42+01:00</time>
      </trkpt>
      <trkpt lat="43.34472" lon="6.41796">
        <ele>100</ele>
        <time>2018-11-14T23:36:47+01:00</time>
      </trkpt>
      <trkpt lat="43.34505" lon="6.41841">
        <ele>100</ele>
        <time>2018-11-14T23:36:52+01:00</time>
      </trkpt>
      <trkpt lat="43.34583" lon="6.41899">
        <ele>100</ele>
        <time>2018-11-14T23:36:57+01:00</time>
      </trkpt>
      <trkpt lat="43.34634" lon="6.41896">
        <ele>100</ele>
        <time>2018-11-14T23:37:02+01:00</time>
      </trkpt>
      <trkpt lat="43.34642" lon="6.42049">
        <ele>99</ele>
        <time>2018-11-14T23:37:07+01:00</time>
      </trkpt>
      <trkpt lat="43.34633" lon="6.42266">
        <ele>94</ele>
        <time>2018-11-14T23:37:12+01:00</time>
      </trkpt>
      <trkpt lat="43.34659" lon="6.42368">
        <ele>91</ele>
        <time>2018-11-14T23:37:17+01:00</time>
      </trkpt>
      <trkpt lat="43.34793" lon="6.42526">
        <ele>92</ele>
        <time>2018-11-14T23:37:22+01:00</time>
      </trkpt>
      <trkpt lat="43.34767" lon="6.42682">
        <ele>86</ele>
        <time>2018-11-14T23:37:27+01:00</time>
      </trkpt>
      <trkpt lat="43.3483" lon="6.42775">
        <ele>83</ele>
        <time>2018-11-14T23:37:32+01:00</time>
      </trkpt>
      <trkpt lat="43.34958" lon="6.42784">
        <ele>79</ele>
        <time>2018-11-14T23:37:37+01:00</time>
      </trkpt>
      <trkpt lat="43.35051" lon="6.42903">
        <ele>79</ele>
        <time>2018-11-14T23:37:42+01:00</time>
      </trkpt>
      <trkpt lat="43.35152" lon="6.42916">
        <ele>79</ele>
        <time>2018-11-14T23:37:47+01:00</time>
      </trkpt>
      <trkpt lat="43.35395" lon="6.43089">
        <ele>79</ele>
        <time>2018-11-14T23:37:52+01:00</time>
      </trkpt>
      <trkpt lat="43.35554" lon="6.43385">
        <ele>82</ele>
        <time>2018-11-14T23:37:57+01:00</time>
      </trkpt>
      <trkpt lat="43.35633" lon="6.43212">
        <ele>85</ele>
        <time>2018-11-14T23:38:02+01:00</time>
      </trkpt>
      <trkpt lat="43.35664" lon="6.43066">
        <ele>85</ele>
        <time>2018-11-14T23:38:07+01:00</time>
      </trkpt>
      <trkpt lat="43.35751" lon="6.4284">
        <ele>85</ele>
        <time>2018-11-14T23:38:12+01:00</time>
      </trkpt>
      <trkpt lat="43.35903" lon="6.42695">
        <ele>85</ele>
        <time>2018-11-14T23:38:17+01:00</time>
      </trkpt>
      <trkpt lat="43.36056" lon="6.42574">
        <ele>85</ele>
        <time>2018-11-14T23:38:22+01:00</time>
      </trkpt>
      <trkpt lat="43.36082" lon="6.423">
        <ele>80</ele>
        <time>2018-11-14T23:38:27+01:00</time>
      </trkpt>
      <trkpt lat="43.36128" lon="6.42132">
        <ele>79</ele>
        <time>2018-11-14T23:38:32+01:00</time>
      </trkpt>
      <trkpt lat="43.36163" lon="6.42086">
        <ele>79</ele>
        <time>2018-11-14T23:38:37+01:00</time>
      </trkpt>
      <trkpt lat="43.36203" lon="6.42046">
        <ele>78</ele>
        <time>2018-11-14T23:38:42+01:00</time>
      </trkpt>
      <trkpt lat="43.36393" lon="6.41908">
        <ele>70</ele>
        <time>2018-11-14T23:38:47+01:00</time>
      </trkpt>
      <trkpt lat="43.36437" lon="6.41814">
        <ele>70</ele>
        <time>2018-11-14T23:38:52+01:00</time>
      </trkpt>
      <trkpt lat="43.36509" lon="6.41874">
        <ele>70</ele>
        <time>2018-11-14T23:38:57+01:00</time>
      </trkpt>
      <trkpt lat="43.36549" lon="6.41973">
        <ele>70</ele>
        <time>2018-11-14T23:39:02+01:00</time>
      </trkpt>
      <trkpt lat="43.36646" lon="6.41917">
        <ele>67</ele>
        <time>2018-11-14T23:39:07+01:00</time>
      </trkpt>
      <trkpt lat="43.36727" lon="6.4198">
        <ele>62</ele>
        <time>2018-11-14T23:39:12+01:00</time>
      </trkpt>
      <trkpt lat="43.3678" lon="6.41981">
        <ele>59</ele>
        <time>2018-11-14T23:39:17+01:00</time>
      </trkpt>
      <trkpt lat="43.37058" lon="6.41973">
        <ele>55</ele>
        <time>2018-11-14T23:39:22+01:00</time>
      </trkpt>
      <trkpt lat="43.37067" lon="6.42187">
        <ele>53</ele>
        <time>2018-11-14T23:39:27+01:00</time>
      </trkpt>
      <trkpt lat="43.37051" lon="6.42279">
        <ele>54</ele>
        <time>2018-11-14T23:39:32+01:00</time>
      </trkpt>
      <trkpt lat="43.37079" lon="6.4242">
        <ele>58</ele>
        <time>2018-11-14T23:39:37+01:00</time>
      </trkpt>
      <trkpt lat="43.37039" lon="6.42574">
        <ele>64</ele>
        <time>2018-11-14T23:39:42+01:00</time>
      </trkpt>
      <trkpt lat="43.37235" lon="6.42879">
        <ele>60</ele>
        <time>2018-11-14T23:39:47+01:00</time>
      </trkpt>
      <trkpt lat="43.3726" lon="6.42933">
        <ele>58</ele>
        <time>2018-11-14T23:39:52+01:00</time>
      </trkpt>
      <trkpt lat="43.37316" lon="6.42987">
        <ele>56</ele>
        <time>2018-11-14T23:39:57+01:00</time>
      </trkpt>
      <trkpt lat="43.37327" lon="6.43227">
        <ele>59</ele>
        <time>2018-11-14T23:40:02+01:00</time>
      </trkpt>
      <trkpt lat="43.3762" lon="6.4354">
        <ele>51</ele>
        <time>2018-11-14T23:40:07+01:00</time>
      </trkpt>
      <trkpt lat="43.37669" lon="6.4362">
        <ele>50</ele>
        <time>2018-11-14T23:40:12+01:00</time>
      </trkpt>
      <trkpt lat="43.37644" lon="6.4377">
        <ele>52</ele>
        <time>2018-11-14T23:40:17+01:00</time>
      </trkpt>
      <trkpt lat="43.3768" lon="6.43931">
        <ele>57</ele>
        <time>2018-11-14T23:40:22+01:00</time>
      </trkpt>
      <trkpt lat="43.37672" lon="6.44066">
        <ele>55</ele>
        <time>2018-11-14T23:40:27+01:00</time>
      </trkpt>
      <trkpt lat="43.37763" lon="6.44213">
        <ele>53</ele>
        <time>2018-11-14T23:40:32+01:00</time>
      </trkpt>
      <trkpt lat="43.37871" lon="6.44238">
        <ele>51</ele>
        <time>2018-11-14T23:40:37+01:00</time>
      </trkpt>
      <trkpt lat="43.37959" lon="6.44214">
        <ele>48</ele>
        <time>2018-11-14T23:40:42+01:00</time>
      </trkpt>
      <trkpt lat="43.38043" lon="6.44081">
        <ele>46</ele>
        <time>2018-11-14T23:40:47+01:00</time>
      </trkpt>
      <trkpt lat="43.38115" lon="6.44089">
        <ele>46</ele>
        <time>2018-11-14T23:40:52+01:00</time>
      </trkpt>
      <trkpt lat="43.38147" lon="6.43957">
        <ele>49</ele>
        <time>2018-11-14T23:40:57+01:00</time>
      </trkpt>
      <trkpt lat="43.38218" lon="6.43835">
        <ele>50</ele>
        <time>2018-11-14T23:41:02+01:00</time>
      </trkpt>
      <trkpt lat="43.3805" lon="6.4293">
        <ele>57</ele>
        <time>2018-11-14T23:41:07+01:00</time>
      </trkpt>
      <trkpt lat="43.38119" lon="6.42814">
        <ele>60</ele>
        <time>2018-11-14T23:41:12+01:00</time>
      </trkpt>
      <trkpt lat="43.38053" lon="6.42535">
        <ele>60</ele>
        <time>2018-11-14T23:41:17+01:00</time>
      </trkpt>
      <trkpt lat="43.38054" lon="6.42294">
        <ele>64</ele>
        <time>2018-11-14T23:41:22+01:00</time>
      </trkpt>
      <trkpt lat="43.38073" lon="6.42231">
        <ele>68</ele>
        <time>2018-11-14T23:41:27+01:00</time>
      </trkpt>
      <trkpt lat="43.38069" lon="6.42106">
        <ele>69</ele>
        <time>2018-11-14T23:41:32+01:00</time>
      </trkpt>
      <trkpt lat="43.38132" lon="6.4209">
        <ele>70</ele>
        <time>2018-11-14T23:41:37+01:00</time>
      </trkpt>
      <trkpt lat="43.3829" lon="6.42299">
        <ele>70</ele>
        <time>2018-11-14T23:41:42+01:00</time>
      </trkpt>
      <trkpt lat="43.3865" lon="6.42174">
        <ele>62</ele>
        <time>2018-11-14T23:41:47+01:00</time>
      </trkpt>
      <trkpt lat="43.38811" lon="6.4211">
        <ele>60</ele>
        <time>2018-11-14T23:41:52+01:00</time>
      </trkpt>
      <trkpt lat="43.38926" lon="6.42007">
        <ele>57</ele>
        <time>2018-11-14T23:41:57+01:00</time>
      </trkpt>
      <trkpt lat="43.3898" lon="6.42035">
        <ele>55</ele>
        <time>2018-11-14T23:42:02+01:00</time>
      </trkpt>
      <trkpt lat="43.39006" lon="6.42029">
        <ele>55</ele>
        <time>2018-11-14T23:42:07+01:00</time>
      </trkpt>
      <trkpt lat="43.39305" lon="6.42056">
        <ele>60</ele>
        <time>2018-11-14T23:42:12+01:00</time>
      </trkpt>
      <trkpt lat="43.39651" lon="6.42098">
        <ele>65</ele>
        <time>2018-11-14T23:42:17+01:00</time>
      </trkpt>
      <trkpt lat="43.39962" lon="6.42144">
        <ele>55</ele>
        <time>2018-11-14T23:42:22+01:00</time>
      </trkpt>
      <trkpt lat="43.40008" lon="6.42165">
        <ele>55</ele>
        <time>2018-11-14T23:42:27+01:00</time>
      </trkpt>
      <trkpt lat="43.40055" lon="6.42165">
        <ele>55</ele>
        <time>2018-11-14T23:42:32+01:00</time>
      </trkpt>
      <trkpt lat="43.40436" lon="6.42236">
        <ele>55</ele>
        <time>2018-11-14T23:42:37+01:00</time>
      </trkpt>
      <trkpt lat="43.40567" lon="6.42366">
        <ele>58</ele>
        <time>2018-11-14T23:42:42+01:00</time>
      </trkpt>
      <trkpt lat="43.40635" lon="6.42435">
        <ele>62</ele>
        <time>2018-11-14T23:42:47+01:00</time>
      </trkpt>
      <trkpt lat="43.40704" lon="6.42496">
        <ele>65</ele>
        <time>2018-11-14T23:42:52+01:00</time>
      </trkpt>
      <trkpt lat="43.40857" lon="6.42537">
        <ele>59</ele>
        <time>2018-11-14T23:42:57+01:00</time>
      </trkpt>
      <trkpt lat="43.40912" lon="6.42551">
        <ele>59</ele>
        <time>2018-11-14T23:43:02+01:00</time>
      </trkpt>
      <trkpt lat="43.40955" lon="6.42575">
        <ele>58</ele>
        <time>2018-11-14T23:43:07+01:00</time>
      </trkpt>
      <trkpt lat="43.40978" lon="6.42576">
        <ele>58</ele>
        <time>2018-11-14T23:43:12+01:00</time>
      </trkpt>
      <trkpt lat="43.41029" lon="6.42586">
        <ele>60</ele>
        <time>2018-11-14T23:43:17+01:00</time>
      </trkpt>
      <trkpt lat="43.41076" lon="6.42604">
        <ele>62</ele>
        <time>2018-11-14T23:43:22+01:00</time>
      </trkpt>
      <trkpt lat="43.41119" lon="6.42614">
        <ele>64</ele>
        <time>2018-11-14T23:43:27+01:00</time>
      </trkpt>
      <trkpt lat="43.41252" lon="6.42663">
        <ele>69</ele>
        <time>2018-11-14T23:43:32+01:00</time>
      </trkpt>
      <trkpt lat="43.41304" lon="6.42761">
        <ele>70</ele>
        <time>2018-11-14T23:43:37+01:00</time>
      </trkpt>
      <trkpt lat="43.4125" lon="6.42809">
        <ele>69</ele>
        <time>2018-11-14T23:43:42+01:00</time>
      </trkpt>
      <trkpt lat="43.41281" lon="6.42937">
        <ele>69</ele>
        <time>2018-11-14T23:43:47+01:00</time>
      </trkpt>
      <trkpt lat="43.4133" lon="6.42919">
        <ele>70</ele>
        <time>2018-11-14T23:43:52+01:00</time>
      </trkpt>
      <trkpt lat="43.41378" lon="6.42903">
        <ele>72</ele>
        <time>2018-11-14T23:43:57+01:00</time>
      </trkpt>
      <trkpt lat="43.41432" lon="6.42876">
        <ele>72</ele>
        <time>2018-11-14T23:44:02+01:00</time>
      </trkpt>
      <trkpt lat="43.41467" lon="6.42844">
        <ele>69</ele>
        <time>2018-11-14T23:44:07+01:00</time>
      </trkpt>
      <trkpt lat="43.41494" lon="6.42819">
        <ele>66</ele>
        <time>2018-11-14T23:44:12+01:00</time>
      </trkpt>
      <trkpt lat="43.41538" lon="6.42785">
        <ele>61</ele>
        <time>2018-11-14T23:44:17+01:00</time>
      </trkpt>
      <trkpt lat="43.41541" lon="6.42795">
        <ele>62</ele>
        <time>2018-11-14T23:44:22+01:00</time>
      </trkpt>
      <trkpt lat="43.41546" lon="6.42805">
        <ele>63</ele>
        <time>2018-11-14T23:44:27+01:00</time>
      </trkpt>
      <trkpt lat="43.41566" lon="6.42799">
        <ele>63</ele>
        <time>2018-11-14T23:44:32+01:00</time>
      </trkpt>
      <trkpt lat="43.41592" lon="6.42789">
        <ele>61</ele>
        <time>2018-11-14T23:44:37+01:00</time>
      </trkpt>
      <trkpt lat="43.41634" lon="6.42804">
        <ele>60</ele>
        <time>2018-11-14T23:44:42+01:00</time>
      </trkpt>
      <trkpt lat="43.41654" lon="6.42815">
        <ele>59</ele>
        <time>2018-11-14T23:44:47+01:00</time>
      </trkpt>
      <trkpt lat="43.41663" lon="6.42826">
        <ele>59</ele>
        <time>2018-11-14T23:44:52+01:00</time>
      </trkpt>
      <trkpt lat="43.41712" lon="6.42848">
        <ele>58</ele>
        <time>2018-11-14T23:44:57+01:00</time>
      </trkpt>
      <trkpt lat="43.41742" lon="6.42856">
        <ele>58</ele>
        <time>2018-11-14T23:45:02+01:00</time>
      </trkpt>
      <trkpt lat="43.4177" lon="6.42855">
        <ele>57</ele>
        <time>2018-11-14T23:45:07+01:00</time>
      </trkpt>
      <trkpt lat="43.41854" lon="6.42871">
        <ele>56</ele>
        <time>2018-11-14T23:45:12+01:00</time>
      </trkpt>
      <trkpt lat="43.41876" lon="6.42865">
        <ele>56</ele>
        <time>2018-11-14T23:45:17+01:00</time>
      </trkpt>
    </trkseg>
  </trk>
</gpx>